<?xml version='1.0' encoding='UTF-8'?><gpx version="1.1" creator="JPX - https://github.com/jenetics/jpx" xmlns="http://www.topografix.com/GPX/1/1"><trk><trkseg><trkpt lat="45.09817513052245" lon="8.9696411232485"><ele>66.0</ele><time>2026-04-11T14:32:40.999Z</time></trkpt><trkpt lat="45.098413036624805" lon="8.969752519884327"><ele>66.0</ele><time>2026-04-11T14:32:41.999Z</time></trkpt><trkpt lat="45.09865249043136" lon="8.969863731496758"><ele>66.0</ele><time>2026-04-11T14:32:42.999Z</time></trkpt><trkpt lat="45.09889344404672" lon="8.969973783000713"><ele>66.0</ele><time>2026-04-11T14:32:43.999Z</time></trkpt><trkpt lat="45.099135282185536" lon="8.970082156765503"><ele>65.5</ele><time>2026-04-11T14:32:44.999Z</time></trkpt><trkpt lat="45.099380948807784" lon="8.970186995528149"><ele>65.0</ele><time>2026-04-11T14:32:45.999Z</time></trkpt><trkpt lat="45.09962735123949" lon="8.970292057793612"><ele>65.0</ele><time>2026-04-11T14:32:46.999Z</time></trkpt><trkpt lat="45.099878972918866" lon="8.970399359772488"><ele>65.0</ele><time>2026-04-11T14:32:47.999Z</time></trkpt><trkpt lat="45.10013092993453" lon="8.970508763655616"><ele>65.5</ele><time>2026-04-11T14:32:48.998Z</time></trkpt><trkpt lat="45.10036340244174" lon="8.970612463795858"><ele>66.0</ele><time>2026-04-11T14:32:49.998Z</time></trkpt><trkpt lat="45.100583759029114" lon="8.970708084451894"><ele>66.0</ele><time>2026-04-11T14:32:50.998Z</time></trkpt><trkpt lat="45.100793441788994" lon="8.970801312196746"><ele>66.0</ele><time>2026-04-11T14:32:51.998Z</time></trkpt><trkpt lat="45.100991360350235" lon="8.970888125118012"><ele>66.0</ele><time>2026-04-11T14:32:52.998Z</time></trkpt><trkpt lat="45.10118230518764" lon="8.970972365764949"><ele>66.0</ele><time>2026-04-11T14:32:53.998Z</time></trkpt><trkpt lat="45.10136279752679" lon="8.97105282681981"><ele>66.0</ele><time>2026-04-11T14:32:54.998Z</time></trkpt><trkpt lat="45.10154284461351" lon="8.971134244517398"><ele>66.0</ele><time>2026-04-11T14:32:55.998Z</time></trkpt><trkpt lat="45.10173829257221" lon="8.971218069823522"><ele>66.0</ele><time>2026-04-11T14:32:56.998Z</time></trkpt><trkpt lat="45.101940235895036" lon="8.971306784866854"><ele>66.0</ele><time>2026-04-11T14:32:57.998Z</time></trkpt><trkpt lat="45.10214778180513" lon="8.971399682519767"><ele>66.0</ele><time>2026-04-11T14:32:58.998Z</time></trkpt><trkpt lat="45.10235790075081" lon="8.971493883348032"><ele>66.0</ele><time>2026-04-11T14:32:59.998Z</time></trkpt><trkpt lat="45.10258182150863" lon="8.971590192032917"><ele>66.0</ele><time>2026-04-11T14:33:00.998Z</time></trkpt><trkpt lat="45.10278229384546" lon="8.971681551380188"><ele>66.0</ele><time>2026-04-11T14:33:01.998Z</time></trkpt><trkpt lat="45.102975642487536" lon="8.971767756692103"><ele>66.33333333333333</ele><time>2026-04-11T14:33:02.998Z</time></trkpt><trkpt lat="45.103162620101145" lon="8.971847883144221"><ele>66.66666666666666</ele><time>2026-04-11T14:33:03.998Z</time></trkpt><trkpt lat="45.103337960696464" lon="8.971926354669757"><ele>67.0</ele><time>2026-04-11T14:33:04.998Z</time></trkpt><trkpt lat="45.10350614655769" lon="8.97200267153157"><ele>67.33333333333333</ele><time>2026-04-11T14:33:05.998Z</time></trkpt><trkpt lat="45.10366759720885" lon="8.972077140206487"><ele>67.66666666666667</ele><time>2026-04-11T14:33:06.998Z</time></trkpt><trkpt lat="45.10383865112401" lon="8.972152175133198"><ele>68.0</ele><time>2026-04-11T14:33:08Z</time></trkpt><trkpt lat="45.104032194530376" lon="8.97223696724761"><ele>66.5</ele><time>2026-04-11T14:33:09Z</time></trkpt><trkpt lat="45.10424436648472" lon="8.97232490450875"><ele>65.0</ele><time>2026-04-11T14:33:10Z</time></trkpt><trkpt lat="45.10447186932631" lon="8.97242242935821"><ele>65.5</ele><time>2026-04-11T14:33:11Z</time></trkpt><trkpt lat="45.10471004297542" lon="8.972527317908122"><ele>66.0</ele><time>2026-04-11T14:33:12Z</time></trkpt><trkpt lat="45.1049563118429" lon="8.972634409202614"><ele>66.0</ele><time>2026-04-11T14:33:13Z</time></trkpt><trkpt lat="45.10521039588705" lon="8.972745716001786"><ele>66.0</ele><time>2026-04-11T14:33:14Z</time></trkpt><trkpt lat="45.10546670898012" lon="8.972854858517577"><ele>66.0</ele><time>2026-04-11T14:33:15Z</time></trkpt><trkpt lat="45.10572339407285" lon="8.97296818677684"><ele>66.0</ele><time>2026-04-11T14:33:16Z</time></trkpt><trkpt lat="45.10598595770791" lon="8.973085371187173"><ele>65.5</ele><time>2026-04-11T14:33:17Z</time></trkpt><trkpt lat="45.106250598268986" lon="8.97320239290919"><ele>65.0</ele><time>2026-04-11T14:33:18Z</time></trkpt><trkpt lat="45.106515139906236" lon="8.973316230398424"><ele>65.5</ele><time>2026-04-11T14:33:19Z</time></trkpt><trkpt lat="45.10678384998911" lon="8.973431966256461"><ele>66.0</ele><time>2026-04-11T14:33:20Z</time></trkpt><trkpt lat="45.10705345439784" lon="8.973548840667155"><ele>66.0</ele><time>2026-04-11T14:33:21Z</time></trkpt><trkpt lat="45.10732305688734" lon="8.973665817425108"><ele>66.0</ele><time>2026-04-11T14:33:22Z</time></trkpt><trkpt lat="45.1075980144839" lon="8.973783850802779"><ele>65.5</ele><time>2026-04-11T14:33:23Z</time></trkpt><trkpt lat="45.107872182716484" lon="8.973901996957839"><ele>65.0</ele><time>2026-04-11T14:33:24Z</time></trkpt><trkpt lat="45.10814934473641" lon="8.974027385171022"><ele>65.0</ele><time>2026-04-11T14:33:25Z</time></trkpt><trkpt lat="45.10842229176917" lon="8.97415083621354"><ele>65.0</ele><time>2026-04-11T14:33:26Z</time></trkpt><trkpt lat="45.108672362481194" lon="8.974262826586571"><ele>65.0</ele><time>2026-04-11T14:33:27Z</time></trkpt><trkpt lat="45.10891107868582" lon="8.97436732036805"><ele>65.0</ele><time>2026-04-11T14:33:28Z</time></trkpt><trkpt lat="45.10914153761966" lon="8.974466656860354"><ele>65.33333333333334</ele><time>2026-04-11T14:33:29Z</time></trkpt><trkpt lat="45.10936000280242" lon="8.97456304503605"><ele>65.66666666666667</ele><time>2026-04-11T14:33:30Z</time></trkpt><trkpt lat="45.10956544388835" lon="8.97465462889292"><ele>66.0</ele><time>2026-04-11T14:33:31Z</time></trkpt><trkpt lat="45.10976329579489" lon="8.974746095613686"><ele>66.66666666666667</ele><time>2026-04-11T14:33:32Z</time></trkpt><trkpt lat="45.109950687871276" lon="8.974830425140944"><ele>67.33333333333334</ele><time>2026-04-11T14:33:33Z</time></trkpt><trkpt lat="45.110152372317636" lon="8.974917490233851"><ele>68.0</ele><time>2026-04-11T14:33:34Z</time></trkpt><trkpt lat="45.11036822724414" lon="8.97500581177215"><ele>69.0</ele><time>2026-04-11T14:33:35Z</time></trkpt><trkpt lat="45.1106017650131" lon="8.975104978617367"><ele>70.0</ele><time>2026-04-11T14:33:36Z</time></trkpt><trkpt lat="45.110848090293736" lon="8.975204708246375"><ele>71.0</ele><time>2026-04-11T14:33:37Z</time></trkpt><trkpt lat="45.11108935657972" lon="8.975297234375187"><ele>72.0</ele><time>2026-04-11T14:33:38Z</time></trkpt><trkpt lat="45.11131283545417" lon="8.975377698847177"><ele>72.0</ele><time>2026-04-11T14:33:39Z</time></trkpt><trkpt lat="45.11152404962549" lon="8.975453030444566"><ele>72.0</ele><time>2026-04-11T14:33:40Z</time></trkpt><trkpt lat="45.111742869605465" lon="8.975528251408571"><ele>72.0</ele><time>2026-04-11T14:33:41Z</time></trkpt><trkpt lat="45.11197669860175" lon="8.975595699825586"><ele>70.5</ele><time>2026-04-11T14:33:42Z</time></trkpt><trkpt lat="45.11221993150544" lon="8.975659970763774"><ele>69.0</ele><time>2026-04-11T14:33:43Z</time></trkpt><trkpt lat="45.11248157232964" lon="8.975728352914187"><ele>68.5</ele><time>2026-04-11T14:33:44Z</time></trkpt><trkpt lat="45.112751567502556" lon="8.975794251085809"><ele>68.0</ele><time>2026-04-11T14:33:45Z</time></trkpt><trkpt lat="45.11302639767603" lon="8.975853521249803"><ele>67.5</ele><time>2026-04-11T14:33:45.999Z</time></trkpt><trkpt lat="45.11330611719758" lon="8.975903261872247"><ele>67.0</ele><time>2026-04-11T14:33:46.999Z</time></trkpt><trkpt lat="45.11358760225145" lon="8.975953050351698"><ele>67.0</ele><time>2026-04-11T14:33:47.999Z</time></trkpt><trkpt lat="45.11387135679541" lon="8.976003744912589"><ele>67.0</ele><time>2026-04-11T14:33:48.999Z</time></trkpt><trkpt lat="45.11414857004637" lon="8.976053631994212"><ele>69.0</ele><time>2026-04-11T14:33:49.999Z</time></trkpt><trkpt lat="45.114422966029984" lon="8.976103243754826"><ele>71.0</ele><time>2026-04-11T14:33:50.999Z</time></trkpt><trkpt lat="45.11470501073294" lon="8.976156860403458"><ele>73.5</ele><time>2026-04-11T14:33:51.999Z</time></trkpt><trkpt lat="45.114991219827466" lon="8.976209214689272"><ele>76.0</ele><time>2026-04-11T14:33:52.999Z</time></trkpt><trkpt lat="45.11528189890412" lon="8.976262772111689"><ele>76.0</ele><time>2026-04-11T14:33:53.999Z</time></trkpt><trkpt lat="45.11557196796012" lon="8.976315426753112"><ele>76.0</ele><time>2026-04-11T14:33:54.999Z</time></trkpt><trkpt lat="45.115863268449765" lon="8.976368429044154"><ele>76.5</ele><time>2026-04-11T14:33:55.999Z</time></trkpt><trkpt lat="45.116155888588786" lon="8.976421964022848"><ele>77.0</ele><time>2026-04-11T14:33:56.999Z</time></trkpt><trkpt lat="45.11645292074324" lon="8.976475751500383"><ele>76.5</ele><time>2026-04-11T14:33:57.999Z</time></trkpt><trkpt lat="45.116755319478145" lon="8.976528313709384"><ele>76.0</ele><time>2026-04-11T14:33:58.999Z</time></trkpt><trkpt lat="45.11705234517004" lon="8.976582601039874"><ele>76.0</ele><time>2026-04-11T14:33:59.999Z</time></trkpt><trkpt lat="45.11734749666196" lon="8.976636338067498"><ele>76.0</ele><time>2026-04-11T14:34:00.999Z</time></trkpt><trkpt lat="45.11764041921913" lon="8.976688514747028"><ele>77.5</ele><time>2026-04-11T14:34:01.999Z</time></trkpt><trkpt lat="45.11793559238781" lon="8.976742938539942"><ele>79.0</ele><time>2026-04-11T14:34:02.999Z</time></trkpt><trkpt lat="45.11822685197265" lon="8.976797716256351"><ele>79.0</ele><time>2026-04-11T14:34:03.999Z</time></trkpt><trkpt lat="45.118518506227645" lon="8.976853388477625"><ele>79.0</ele><time>2026-04-11T14:34:04.999Z</time></trkpt><trkpt lat="45.118812022460915" lon="8.97690991052982"><ele>77.0</ele><time>2026-04-11T14:34:05.999Z</time></trkpt><trkpt lat="45.11910729897526" lon="8.976963628727013"><ele>75.0</ele><time>2026-04-11T14:34:06.999Z</time></trkpt><trkpt lat="45.119404925204215" lon="8.977016094603654"><ele>75.0</ele><time>2026-04-11T14:34:07.999Z</time></trkpt><trkpt lat="45.119695770922505" lon="8.977066631562344"><ele>75.0</ele><time>2026-04-11T14:34:08.999Z</time></trkpt><trkpt lat="45.119983907662586" lon="8.977120388725963"><ele>73.5</ele><time>2026-04-11T14:34:09.999Z</time></trkpt><trkpt lat="45.12027076422948" lon="8.97717379698465"><ele>72.0</ele><time>2026-04-11T14:34:10.999Z</time></trkpt><trkpt lat="45.120557128043586" lon="8.977225301398407"><ele>71.5</ele><time>2026-04-11T14:34:11.999Z</time></trkpt><trkpt lat="45.1208398689944" lon="8.977275538590721"><ele>71.0</ele><time>2026-04-11T14:34:12.999Z</time></trkpt><trkpt lat="45.12112588841215" lon="8.977328788406398"><ele>71.0</ele><time>2026-04-11T14:34:13.999Z</time></trkpt><trkpt lat="45.12140942023784" lon="8.977383594213459"><ele>71.0</ele><time>2026-04-11T14:34:14.999Z</time></trkpt><trkpt lat="45.12169235501341" lon="8.977439180912995"><ele>70.5</ele><time>2026-04-11T14:34:15.999Z</time></trkpt><trkpt lat="45.12197211745256" lon="8.977493724651087"><ele>70.0</ele><time>2026-04-11T14:34:16.999Z</time></trkpt><trkpt lat="45.12224740925411" lon="8.977542605794316"><ele>70.5</ele><time>2026-04-11T14:34:17.999Z</time></trkpt><trkpt lat="45.122520986942774" lon="8.97758899601268"><ele>71.0</ele><time>2026-04-11T14:34:18.999Z</time></trkpt><trkpt lat="45.122794673659214" lon="8.977636903963678"><ele>71.0</ele><time>2026-04-11T14:34:19.999Z</time></trkpt><trkpt lat="45.123067048747465" lon="8.977685293791918"><ele>71.0</ele><time>2026-04-11T14:34:20.999Z</time></trkpt><trkpt lat="45.123336918621696" lon="8.977736440172604"><ele>73.0</ele><time>2026-04-11T14:34:21.999Z</time></trkpt><trkpt lat="45.12360653006658" lon="8.977790638063436"><ele>75.0</ele><time>2026-04-11T14:34:22.999Z</time></trkpt><trkpt lat="45.123875942377694" lon="8.97784376583784"><ele>76.5</ele><time>2026-04-11T14:34:23.999Z</time></trkpt><trkpt lat="45.12415277079051" lon="8.977893298027425"><ele>78.0</ele><time>2026-04-11T14:34:24.999Z</time></trkpt><trkpt lat="45.124425064195705" lon="8.97793799145717"><ele>78.0</ele><time>2026-04-11T14:34:25.999Z</time></trkpt><trkpt lat="45.124703510203474" lon="8.97798898337482"><ele>78.0</ele><time>2026-04-11T14:34:26.999Z</time></trkpt><trkpt lat="45.124989079151455" lon="8.978045955378278"><ele>78.0</ele><time>2026-04-11T14:34:27.999Z</time></trkpt><trkpt lat="45.125272392153846" lon="8.978106709671085"><ele>78.0</ele><time>2026-04-11T14:34:28.999Z</time></trkpt><trkpt lat="45.125555162376585" lon="8.978175634403536"><ele>79.5</ele><time>2026-04-11T14:34:29.999Z</time></trkpt><trkpt lat="45.12582670564044" lon="8.978252108095834"><ele>81.0</ele><time>2026-04-11T14:34:30.999Z</time></trkpt><trkpt lat="45.12610031214474" lon="8.978339444367029"><ele>80.5</ele><time>2026-04-11T14:34:31.999Z</time></trkpt><trkpt lat="45.12637420501101" lon="8.978437140090882"><ele>80.0</ele><time>2026-04-11T14:34:32.999Z</time></trkpt><trkpt lat="45.12664183157094" lon="8.978542860734615"><ele>79.5</ele><time>2026-04-11T14:34:33.999Z</time></trkpt><trkpt lat="45.12691225966568" lon="8.978659621340652"><ele>79.0</ele><time>2026-04-11T14:34:34.999Z</time></trkpt><trkpt lat="45.12718656543628" lon="8.978781454543862"><ele>80.0</ele><time>2026-04-11T14:34:35.999Z</time></trkpt><trkpt lat="45.12746002199671" lon="8.978912535951006"><ele>81.0</ele><time>2026-04-11T14:34:36.999Z</time></trkpt><trkpt lat="45.1277322977515" lon="8.97904785101067"><ele>80.5</ele><time>2026-04-11T14:34:37.999Z</time></trkpt><trkpt lat="45.128003358818674" lon="8.979195209006617"><ele>80.0</ele><time>2026-04-11T14:34:38.999Z</time></trkpt><trkpt lat="45.12826847165586" lon="8.979346318699488"><ele>79.5</ele><time>2026-04-11T14:34:39.999Z</time></trkpt><trkpt lat="45.12853504584672" lon="8.979509362232054"><ele>79.0</ele><time>2026-04-11T14:34:40.999Z</time></trkpt><trkpt lat="45.12879874889538" lon="8.97967357170195"><ele>79.5</ele><time>2026-04-11T14:34:41.999Z</time></trkpt><trkpt lat="45.12906508822327" lon="8.97983950372863"><ele>80.0</ele><time>2026-04-11T14:34:42.999Z</time></trkpt><trkpt lat="45.12932995275846" lon="8.980009162291633"><ele>80.0</ele><time>2026-04-11T14:34:43.999Z</time></trkpt><trkpt lat="45.12959866240593" lon="8.980180423309891"><ele>80.0</ele><time>2026-04-11T14:34:44.999Z</time></trkpt><trkpt lat="45.129869265071115" lon="8.98034680374665"><ele>80.0</ele><time>2026-04-11T14:34:45.999Z</time></trkpt><trkpt lat="45.13013973120008" lon="8.980509024181334"><ele>80.0</ele><time>2026-04-11T14:34:46.999Z</time></trkpt><trkpt lat="45.1304109923148" lon="8.980672021686967"><ele>80.0</ele><time>2026-04-11T14:34:47.999Z</time></trkpt><trkpt lat="45.130681084216306" lon="8.980836197252108"><ele>80.0</ele><time>2026-04-11T14:34:48.999Z</time></trkpt><trkpt lat="45.13095308066259" lon="8.98100593147642"><ele>82.0</ele><time>2026-04-11T14:34:49.999Z</time></trkpt><trkpt lat="45.13123235410006" lon="8.98118236274374"><ele>84.0</ele><time>2026-04-11T14:34:50.999Z</time></trkpt><trkpt lat="45.13151323179433" lon="8.981355579068941"><ele>83.5</ele><time>2026-04-11T14:34:51.998Z</time></trkpt><trkpt lat="45.13179453280289" lon="8.98152989685114"><ele>83.0</ele><time>2026-04-11T14:34:52.998Z</time></trkpt><trkpt lat="45.13207028804633" lon="8.981698355213634"><ele>83.0</ele><time>2026-04-11T14:34:53.998Z</time></trkpt><trkpt lat="45.1323472048432" lon="8.981867773576647"><ele>83.0</ele><time>2026-04-11T14:34:54.998Z</time></trkpt><trkpt lat="45.13261949339014" lon="8.98203735879682"><ele>82.5</ele><time>2026-04-11T14:34:55.998Z</time></trkpt><trkpt lat="45.1328925831286" lon="8.982208444971995"><ele>82.0</ele><time>2026-04-11T14:34:56.998Z</time></trkpt><trkpt lat="45.133163655149204" lon="8.982377722351032"><ele>81.0</ele><time>2026-04-11T14:34:57.998Z</time></trkpt><trkpt lat="45.13343344912422" lon="8.9825445169879"><ele>80.0</ele><time>2026-04-11T14:34:58.998Z</time></trkpt><trkpt lat="45.13370523304505" lon="8.982709765332785"><ele>80.0</ele><time>2026-04-11T14:34:59.998Z</time></trkpt><trkpt lat="45.13397385376457" lon="8.982872258026017"><ele>80.0</ele><time>2026-04-11T14:35:00.998Z</time></trkpt><trkpt lat="45.134242528963085" lon="8.983038211053895"><ele>80.5</ele><time>2026-04-11T14:35:01.998Z</time></trkpt><trkpt lat="45.134512926533695" lon="8.983206514727227"><ele>81.0</ele><time>2026-04-11T14:35:02.998Z</time></trkpt><trkpt lat="45.134783682625134" lon="8.983375767567797"><ele>82.0</ele><time>2026-04-11T14:35:03.998Z</time></trkpt><trkpt lat="45.13505879005493" lon="8.98354350563309"><ele>83.0</ele><time>2026-04-11T14:35:04.998Z</time></trkpt><trkpt lat="45.13533518375671" lon="8.983712534960224"><ele>83.0</ele><time>2026-04-11T14:35:05.998Z</time></trkpt><trkpt lat="45.135614404578355" lon="8.983885433926481"><ele>83.0</ele><time>2026-04-11T14:35:06.998Z</time></trkpt><trkpt lat="45.135890319831965" lon="8.984058679979697"><ele>82.5</ele><time>2026-04-11T14:35:07.998Z</time></trkpt><trkpt lat="45.136166131896715" lon="8.984234484242808"><ele>82.0</ele><time>2026-04-11T14:35:08.998Z</time></trkpt><trkpt lat="45.13644723103318" lon="8.984408615729546"><ele>82.0</ele><time>2026-04-11T14:35:09.998Z</time></trkpt><trkpt lat="45.13673022279342" lon="8.984578268640979"><ele>82.0</ele><time>2026-04-11T14:35:10.998Z</time></trkpt><trkpt lat="45.137011106772114" lon="8.984747554908601"><ele>82.0</ele><time>2026-04-11T14:35:11.998Z</time></trkpt><trkpt lat="45.13729619439323" lon="8.984927009413338"><ele>82.0</ele><time>2026-04-11T14:35:12.998Z</time></trkpt><trkpt lat="45.137577918523" lon="8.985106034918102"><ele>83.0</ele><time>2026-04-11T14:35:14Z</time></trkpt><trkpt lat="45.13785939509503" lon="8.985285819194688"><ele>84.0</ele><time>2026-04-11T14:35:15Z</time></trkpt><trkpt lat="45.13814783877904" lon="8.98546313029583"><ele>83.5</ele><time>2026-04-11T14:35:16Z</time></trkpt><trkpt lat="45.13842688769202" lon="8.985631327881032"><ele>83.0</ele><time>2026-04-11T14:35:17Z</time></trkpt><trkpt lat="45.138704792920706" lon="8.985798747120354"><ele>83.0</ele><time>2026-04-11T14:35:18Z</time></trkpt><trkpt lat="45.13898111746102" lon="8.985965432838281"><ele>83.0</ele><time>2026-04-11T14:35:19Z</time></trkpt><trkpt lat="45.13925784517786" lon="8.986133126486177"><ele>83.0</ele><time>2026-04-11T14:35:20Z</time></trkpt><trkpt lat="45.1395258715885" lon="8.986298975555554"><ele>83.0</ele><time>2026-04-11T14:35:21Z</time></trkpt><trkpt lat="45.139793735617026" lon="8.986467901900571"><ele>83.0</ele><time>2026-04-11T14:35:22Z</time></trkpt><trkpt lat="45.14005995231714" lon="8.986632777142841"><ele>83.0</ele><time>2026-04-11T14:35:23Z</time></trkpt><trkpt lat="45.14032508959352" lon="8.986795722927134"><ele>83.0</ele><time>2026-04-11T14:35:24Z</time></trkpt><trkpt lat="45.14059241301353" lon="8.986960486970483"><ele>83.0</ele><time>2026-04-11T14:35:25Z</time></trkpt><trkpt lat="45.140859818167776" lon="8.987126694245795"><ele>83.0</ele><time>2026-04-11T14:35:26Z</time></trkpt><trkpt lat="45.14113163861371" lon="8.98729637831597"><ele>83.0</ele><time>2026-04-11T14:35:27Z</time></trkpt><trkpt lat="45.14140725137487" lon="8.987472660724475"><ele>83.5</ele><time>2026-04-11T14:35:28Z</time></trkpt><trkpt lat="45.14168324476952" lon="8.98764508910466"><ele>84.0</ele><time>2026-04-11T14:35:29Z</time></trkpt><trkpt lat="45.141960851694236" lon="8.987814014792788"><ele>84.0</ele><time>2026-04-11T14:35:30Z</time></trkpt><trkpt lat="45.14224056239687" lon="8.987982375978982"><ele>84.0</ele><time>2026-04-11T14:35:31Z</time></trkpt><trkpt lat="45.1425185897056" lon="8.988151192647535"><ele>84.5</ele><time>2026-04-11T14:35:32Z</time></trkpt><trkpt lat="45.142797493555825" lon="8.988322476061514"><ele>85.0</ele><time>2026-04-11T14:35:33Z</time></trkpt><trkpt lat="45.143075427444174" lon="8.988497311875728"><ele>84.5</ele><time>2026-04-11T14:35:34Z</time></trkpt><trkpt lat="45.14335385056203" lon="8.988670868888617"><ele>84.0</ele><time>2026-04-11T14:35:35Z</time></trkpt><trkpt lat="45.14363472871267" lon="8.988841725246422"><ele>84.0</ele><time>2026-04-11T14:35:36Z</time></trkpt><trkpt lat="45.14391254563857" lon="8.989011699892227"><ele>84.0</ele><time>2026-04-11T14:35:37Z</time></trkpt><trkpt lat="45.14419025077792" lon="8.989180378565921"><ele>82.5</ele><time>2026-04-11T14:35:38Z</time></trkpt><trkpt lat="45.14445884124788" lon="8.989348939234528"><ele>81.0</ele><time>2026-04-11T14:35:39Z</time></trkpt><trkpt lat="45.14472442741959" lon="8.989516872770022"><ele>81.5</ele><time>2026-04-11T14:35:40Z</time></trkpt><trkpt lat="45.14498975804677" lon="8.989683195244565"><ele>82.0</ele><time>2026-04-11T14:35:41Z</time></trkpt><trkpt lat="45.14525217950212" lon="8.98984497996214"><ele>82.0</ele><time>2026-04-11T14:35:42Z</time></trkpt><trkpt lat="45.145512188587105" lon="8.990003988019911"><ele>82.0</ele><time>2026-04-11T14:35:43Z</time></trkpt><trkpt lat="45.145776091069806" lon="8.990164460362182"><ele>83.5</ele><time>2026-04-11T14:35:44Z</time></trkpt><trkpt lat="45.14604613214017" lon="8.990329031557808"><ele>85.0</ele><time>2026-04-11T14:35:45Z</time></trkpt><trkpt lat="45.146323137191544" lon="8.990502343151046"><ele>86.5</ele><time>2026-04-11T14:35:46Z</time></trkpt><trkpt lat="45.14659905708384" lon="8.990672286066518"><ele>88.0</ele><time>2026-04-11T14:35:47Z</time></trkpt><trkpt lat="45.14687516710727" lon="8.990845171822697"><ele>88.0</ele><time>2026-04-11T14:35:48Z</time></trkpt><trkpt lat="45.14714895368767" lon="8.991015128176512"><ele>88.0</ele><time>2026-04-11T14:35:48.999Z</time></trkpt><trkpt lat="45.1474236445431" lon="8.991184693553132"><ele>88.5</ele><time>2026-04-11T14:35:49.999Z</time></trkpt><trkpt lat="45.14769520172021" lon="8.991349919634795"><ele>89.0</ele><time>2026-04-11T14:35:50.999Z</time></trkpt><trkpt lat="45.14796686810674" lon="8.991513612943354"><ele>88.0</ele><time>2026-04-11T14:35:51.999Z</time></trkpt><trkpt lat="45.148235985911775" lon="8.991674429518513"><ele>87.0</ele><time>2026-04-11T14:35:52.999Z</time></trkpt><trkpt lat="45.14851772919016" lon="8.99184408600535"><ele>87.0</ele><time>2026-04-11T14:35:53.999Z</time></trkpt><trkpt lat="45.14880256863608" lon="8.99202148203143"><ele>87.0</ele><time>2026-04-11T14:35:54.999Z</time></trkpt><trkpt lat="45.14909415575338" lon="8.992196889192178"><ele>87.0</ele><time>2026-04-11T14:35:55.999Z</time></trkpt><trkpt lat="45.14940776437354" lon="8.992379775279465"><ele>87.0</ele><time>2026-04-11T14:35:56.999Z</time></trkpt><trkpt lat="45.14974054948105" lon="8.99256577107579"><ele>87.0</ele><time>2026-04-11T14:35:57.999Z</time></trkpt><trkpt lat="45.1500739369776" lon="8.992757089967258"><ele>87.0</ele><time>2026-04-11T14:35:58.999Z</time></trkpt><trkpt lat="45.15040499171103" lon="8.99294454075155"><ele>86.5</ele><time>2026-04-11T14:35:59.999Z</time></trkpt><trkpt lat="45.150733057953" lon="8.99311531504057"><ele>86.0</ele><time>2026-04-11T14:36:00.999Z</time></trkpt><trkpt lat="45.15105475743864" lon="8.993285984215992"><ele>85.5</ele><time>2026-04-11T14:36:01.999Z</time></trkpt><trkpt lat="45.151375881135884" lon="8.993453061904866"><ele>85.0</ele><time>2026-04-11T14:36:02.999Z</time></trkpt><trkpt lat="45.15169347387432" lon="8.993602817372636"><ele>84.0</ele><time>2026-04-11T14:36:03.999Z</time></trkpt><trkpt lat="45.152013218302436" lon="8.993751212709382"><ele>83.0</ele><time>2026-04-11T14:36:04.999Z</time></trkpt><trkpt lat="45.152333144194216" lon="8.993902167089166"><ele>83.5</ele><time>2026-04-11T14:36:05.999Z</time></trkpt><trkpt lat="45.152655026915646" lon="8.994057394900938"><ele>84.0</ele><time>2026-04-11T14:36:06.999Z</time></trkpt><trkpt lat="45.1529838423252" lon="8.994210113909924"><ele>84.0</ele><time>2026-04-11T14:36:07.999Z</time></trkpt><trkpt lat="45.15332761467774" lon="8.994358031225342"><ele>84.0</ele><time>2026-04-11T14:36:08.999Z</time></trkpt><trkpt lat="45.15368658324409" lon="8.994513893673147"><ele>84.5</ele><time>2026-04-11T14:36:09.999Z</time></trkpt><trkpt lat="45.15404748642747" lon="8.994687372572857"><ele>85.0</ele><time>2026-04-11T14:36:10.999Z</time></trkpt><trkpt lat="45.15440478097977" lon="8.994871104078928"><ele>85.0</ele><time>2026-04-11T14:36:11.999Z</time></trkpt><trkpt lat="45.154759873915495" lon="8.995048408280475"><ele>85.0</ele><time>2026-04-11T14:36:12.999Z</time></trkpt><trkpt lat="45.15511705252218" lon="8.995219317349747"><ele>84.5</ele><time>2026-04-11T14:36:13.999Z</time></trkpt><trkpt lat="45.15547863605449" lon="8.995388174352659"><ele>84.0</ele><time>2026-04-11T14:36:14.999Z</time></trkpt><trkpt lat="45.155835629993824" lon="8.995560699090321"><ele>85.5</ele><time>2026-04-11T14:36:15.999Z</time></trkpt><trkpt lat="45.15619225689846" lon="8.995744949310131"><ele>87.0</ele><time>2026-04-11T14:36:16.999Z</time></trkpt><trkpt lat="45.15654243372239" lon="8.995932638138399"><ele>88.0</ele><time>2026-04-11T14:36:17.999Z</time></trkpt><trkpt lat="45.156889228723536" lon="8.996113220561108"><ele>89.0</ele><time>2026-04-11T14:36:18.999Z</time></trkpt><trkpt lat="45.15723192478042" lon="8.99628341255245"><ele>88.5</ele><time>2026-04-11T14:36:19.999Z</time></trkpt><trkpt lat="45.15757483232397" lon="8.996448978035426"><ele>88.0</ele><time>2026-04-11T14:36:20.999Z</time></trkpt><trkpt lat="45.15791591955924" lon="8.996613109002665"><ele>87.5</ele><time>2026-04-11T14:36:21.999Z</time></trkpt><trkpt lat="45.15825450387922" lon="8.996775399333128"><ele>87.0</ele><time>2026-04-11T14:36:22.999Z</time></trkpt><trkpt lat="45.15858924928393" lon="8.99693674692363"><ele>87.0</ele><time>2026-04-11T14:36:23.999Z</time></trkpt><trkpt lat="45.15892228067718" lon="8.99709762903823"><ele>87.0</ele><time>2026-04-11T14:36:24.999Z</time></trkpt><trkpt lat="45.15924868880465" lon="8.997256195204637"><ele>87.0</ele><time>2026-04-11T14:36:25.999Z</time></trkpt><trkpt lat="45.159574422368095" lon="8.997415721819287"><ele>87.0</ele><time>2026-04-11T14:36:26.999Z</time></trkpt><trkpt lat="45.15990032902924" lon="8.99757086133395"><ele>87.0</ele><time>2026-04-11T14:36:27.999Z</time></trkpt><trkpt lat="45.16022699659957" lon="8.997722884275944"><ele>87.0</ele><time>2026-04-11T14:36:28.999Z</time></trkpt><trkpt lat="45.16055605786483" lon="8.997876582755977"><ele>87.0</ele><time>2026-04-11T14:36:29.999Z</time></trkpt><trkpt lat="45.16088357015408" lon="8.998037045881716"><ele>87.0</ele><time>2026-04-11T14:36:30.999Z</time></trkpt><trkpt lat="45.161210540388225" lon="8.998198009354997"><ele>86.5</ele><time>2026-04-11T14:36:31.999Z</time></trkpt><trkpt lat="45.16153677553082" lon="8.998355573077776"><ele>86.0</ele><time>2026-04-11T14:36:32.999Z</time></trkpt><trkpt lat="45.16186270696294" lon="8.998508975224155"><ele>86.0</ele><time>2026-04-11T14:36:33.999Z</time></trkpt><trkpt lat="45.16218502373233" lon="8.998664789941538"><ele>86.0</ele><time>2026-04-11T14:36:34.999Z</time></trkpt><trkpt lat="45.16250623577566" lon="8.998821093318497"><ele>85.5</ele><time>2026-04-11T14:36:35.999Z</time></trkpt><trkpt lat="45.16282537300331" lon="8.998978158176078"><ele>85.0</ele><time>2026-04-11T14:36:36.999Z</time></trkpt><trkpt lat="45.163139835846344" lon="8.999129301552198"><ele>84.5</ele><time>2026-04-11T14:36:37.999Z</time></trkpt><trkpt lat="45.163438754121714" lon="8.999274161554453"><ele>84.0</ele><time>2026-04-11T14:36:38.999Z</time></trkpt><trkpt lat="45.163719008143254" lon="8.999410853307499"><ele>84.0</ele><time>2026-04-11T14:36:39.999Z</time></trkpt><trkpt lat="45.16399277295156" lon="8.999546713720898"><ele>84.0</ele><time>2026-04-11T14:36:40.999Z</time></trkpt><trkpt lat="45.16426957236181" lon="8.999682691282452"><ele>85.0</ele><time>2026-04-11T14:36:41.999Z</time></trkpt><trkpt lat="45.16454739166306" lon="8.999815843839434"><ele>86.0</ele><time>2026-04-11T14:36:42.999Z</time></trkpt><trkpt lat="45.164814546085395" lon="8.999945282478295"><ele>86.5</ele><time>2026-04-11T14:36:43.999Z</time></trkpt><trkpt lat="45.165067831855346" lon="9.00006056775"><ele>87.0</ele><time>2026-04-11T14:36:44.999Z</time></trkpt><trkpt lat="45.16530607093566" lon="9.000172545369967"><ele>87.0</ele><time>2026-04-11T14:36:45.999Z</time></trkpt><trkpt lat="45.16553259295886" lon="9.000281797957182"><ele>87.0</ele><time>2026-04-11T14:36:46.999Z</time></trkpt><trkpt lat="45.165747634930995" lon="9.000384636651965"><ele>86.66666666666667</ele><time>2026-04-11T14:36:47.999Z</time></trkpt><trkpt lat="45.16595260719366" lon="9.000482920726329"><ele>86.33333333333334</ele><time>2026-04-11T14:36:48.999Z</time></trkpt><trkpt lat="45.16614850047385" lon="9.000582944794887"><ele>86.0</ele><time>2026-04-11T14:36:49.999Z</time></trkpt><trkpt lat="45.166357423003426" lon="9.000687503723134"><ele>86.0</ele><time>2026-04-11T14:36:50.999Z</time></trkpt><trkpt lat="45.166573552141905" lon="9.000792978596824"><ele>86.0</ele><time>2026-04-11T14:36:51.999Z</time></trkpt><trkpt lat="45.166793718576635" lon="9.000897203915953"><ele>86.0</ele><time>2026-04-11T14:36:52.999Z</time></trkpt><trkpt lat="45.16702136132275" lon="9.001004322358995"><ele>86.0</ele><time>2026-04-11T14:36:53.999Z</time></trkpt><trkpt lat="45.16725276183573" lon="9.001118113349541"><ele>85.5</ele><time>2026-04-11T14:36:54.999Z</time></trkpt><trkpt lat="45.16748436253311" lon="9.00123705215084"><ele>85.0</ele><time>2026-04-11T14:36:55.999Z</time></trkpt><trkpt lat="45.1677219353623" lon="9.001351557289997"><ele>85.0</ele><time>2026-04-11T14:36:56.998Z</time></trkpt><trkpt lat="45.16796485813852" lon="9.00146447317265"><ele>85.0</ele><time>2026-04-11T14:36:57.998Z</time></trkpt><trkpt lat="45.168210226706556" lon="9.001576993764946"><ele>85.5</ele><time>2026-04-11T14:36:58.998Z</time></trkpt><trkpt lat="45.168458166343946" lon="9.001697404688365"><ele>86.0</ele><time>2026-04-11T14:36:59.998Z</time></trkpt><trkpt lat="45.16870849220043" lon="9.00182391161895"><ele>86.0</ele><time>2026-04-11T14:37:00.998Z</time></trkpt><trkpt lat="45.16896144592057" lon="9.00194891848201"><ele>86.0</ele><time>2026-04-11T14:37:01.998Z</time></trkpt><trkpt lat="45.16921482384523" lon="9.002069957814708"><ele>85.5</ele><time>2026-04-11T14:37:02.998Z</time></trkpt><trkpt lat="45.16945957293048" lon="9.002183596437145"><ele>85.0</ele><time>2026-04-11T14:37:03.998Z</time></trkpt><trkpt lat="45.169690989945956" lon="9.002294677119465"><ele>85.0</ele><time>2026-04-11T14:37:04.998Z</time></trkpt><trkpt lat="45.16991166707449" lon="9.002403801291162"><ele>85.0</ele><time>2026-04-11T14:37:05.998Z</time></trkpt><trkpt lat="45.17012151114673" lon="9.002506475308037"><ele>85.0</ele><time>2026-04-11T14:37:06.998Z</time></trkpt><trkpt lat="45.17032296538331" lon="9.002599170073989"><ele>85.0</ele><time>2026-04-11T14:37:07.998Z</time></trkpt><trkpt lat="45.17051679620204" lon="9.00269516716454"><ele>85.0</ele><time>2026-04-11T14:37:08.998Z</time></trkpt><trkpt lat="45.170700211975294" lon="9.002790464331259"><ele>85.33333333333333</ele><time>2026-04-11T14:37:09.998Z</time></trkpt><trkpt lat="45.17087538128775" lon="9.002877500524875"><ele>85.66666666666667</ele><time>2026-04-11T14:37:10.998Z</time></trkpt><trkpt lat="45.17104535062943" lon="9.002959821755267"><ele>86.0</ele><time>2026-04-11T14:37:11.998Z</time></trkpt><trkpt lat="45.17121190545986" lon="9.003043524055965"><ele>86.0</ele><time>2026-04-11T14:37:12.998Z</time></trkpt><trkpt lat="45.171367576120694" lon="9.003121696590425"><ele>86.0</ele><time>2026-04-11T14:37:13.998Z</time></trkpt><trkpt lat="45.17152452443496" lon="9.003195868536782"><ele>86.0</ele><time>2026-04-11T14:37:14.998Z</time></trkpt><trkpt lat="45.1716762719248" lon="9.003267749466204"><ele>86.33333333333334</ele><time>2026-04-11T14:37:15.998Z</time></trkpt><trkpt lat="45.17182542626479" lon="9.003335744318546"><ele>86.66666666666667</ele><time>2026-04-11T14:37:16.998Z</time></trkpt><trkpt lat="45.17198053125663" lon="9.00341089070789"><ele>87.0</ele><time>2026-04-11T14:37:17.998Z</time></trkpt><trkpt lat="45.17214143695559" lon="9.003488595779885"><ele>87.0</ele><time>2026-04-11T14:37:18.998Z</time></trkpt><trkpt lat="45.17230484486331" lon="9.00356663717978"><ele>87.0</ele><time>2026-04-11T14:37:19.999Z</time></trkpt><trkpt lat="45.17247386647923" lon="9.003645616232417"><ele>87.0</ele><time>2026-04-11T14:37:20.999Z</time></trkpt><trkpt lat="45.172644745654196" lon="9.003723893926567"><ele>86.66666666666667</ele><time>2026-04-11T14:37:21.999Z</time></trkpt><trkpt lat="45.172812370556244" lon="9.003801010969438"><ele>86.33333333333334</ele><time>2026-04-11T14:37:22.999Z</time></trkpt><trkpt lat="45.172975667567485" lon="9.003884749512515"><ele>86.0</ele><time>2026-04-11T14:37:23.999Z</time></trkpt><trkpt lat="45.1731291359939" lon="9.00396915958906"><ele>86.0</ele><time>2026-04-11T14:37:24.999Z</time></trkpt><trkpt lat="45.17327472549101" lon="9.004059101147645"><ele>86.0</ele><time>2026-04-11T14:37:25.999Z</time></trkpt><trkpt lat="45.173411609963196" lon="9.00416224169376"><ele>86.0</ele><time>2026-04-11T14:37:26.999Z</time></trkpt><trkpt lat="45.173527785610986" lon="9.004295904047416"><ele>86.0</ele><time>2026-04-11T14:37:27.999Z</time></trkpt><trkpt lat="45.173618621026854" lon="9.00445253416954"><ele>86.0</ele><time>2026-04-11T14:37:28.999Z</time></trkpt><trkpt lat="45.17367808917168" lon="9.004622366202646"><ele>86.0</ele><time>2026-04-11T14:37:29.999Z</time></trkpt><trkpt lat="45.17369694161563" lon="9.004799264260644"><ele>86.0</ele><time>2026-04-11T14:37:30.999Z</time></trkpt><trkpt lat="45.17369215385308" lon="9.00496663091206"><ele>86.0</ele><time>2026-04-11T14:37:31.999Z</time></trkpt><trkpt lat="45.17366761367341" lon="9.005122948550223"><ele>86.0</ele><time>2026-04-11T14:37:32.999Z</time></trkpt><trkpt lat="45.17360841336549" lon="9.005248807620436"><ele>86.0</ele><time>2026-04-11T14:37:33.999Z</time></trkpt><trkpt lat="45.17353540560802" lon="9.005360472708904"><ele>86.0</ele><time>2026-04-11T14:37:34.999Z</time></trkpt><trkpt lat="45.17345732482967" lon="9.005454992873018"><ele>86.0</ele><time>2026-04-11T14:37:35.999Z</time></trkpt><trkpt lat="45.17337574089168" lon="9.005518659999126"><ele>86.0</ele><time>2026-04-11T14:37:36.999Z</time></trkpt><trkpt lat="45.17329235338459" lon="9.005568943621856"><ele>86.0</ele><time>2026-04-11T14:37:37.999Z</time></trkpt><trkpt lat="45.17320078121901" lon="9.005587689500896"><ele>86.0</ele><time>2026-04-11T14:37:38.999Z</time></trkpt><trkpt lat="45.17311220150404" lon="9.005570864501898"><ele>86.0</ele><time>2026-04-11T14:37:39.999Z</time></trkpt><trkpt lat="45.17302103643048" lon="9.00553874525602"><ele>86.0</ele><time>2026-04-11T14:37:40.999Z</time></trkpt><trkpt lat="45.172938618512596" lon="9.005489713777207"><ele>85.83333333333334</ele><time>2026-04-11T14:37:41.999Z</time></trkpt><trkpt lat="45.17286294445355" lon="9.00543653843482"><ele>85.66666666666667</ele><time>2026-04-11T14:37:42.999Z</time></trkpt><trkpt lat="45.172797700641766" lon="9.005380612283561"><ele>85.5</ele><time>2026-04-11T14:37:43.999Z</time></trkpt><trkpt lat="45.17273281029942" lon="9.00532089487627"><ele>85.33333333333333</ele><time>2026-04-11T14:37:44.999Z</time></trkpt><trkpt lat="45.17267375289928" lon="9.005261626226185"><ele>85.16666666666666</ele><time>2026-04-11T14:37:45.999Z</time></trkpt><trkpt lat="45.17261144945578" lon="9.005200735696421"><ele>85.0</ele><time>2026-04-11T14:37:46.999Z</time></trkpt><trkpt lat="45.17254121444514" lon="9.005135239809906"><ele>85.0</ele><time>2026-04-11T14:37:47.999Z</time></trkpt><trkpt lat="45.17247153294021" lon="9.005061263545048"><ele>85.0</ele><time>2026-04-11T14:37:48.999Z</time></trkpt><trkpt lat="45.17241542876278" lon="9.004996688488646"><ele>85.0</ele><time>2026-04-11T14:37:49.999Z</time></trkpt><trkpt lat="45.172311849808516" lon="9.004920810835399"><ele>85.0</ele><time>2026-04-11T14:37:51.999Z</time></trkpt><trkpt lat="45.1722185526672" lon="9.004820516866625"><ele>85.0</ele><time>2026-04-11T14:37:53.999Z</time></trkpt><trkpt lat="45.17215894774699" lon="9.004758021858223"><ele>85.2</ele><time>2026-04-11T14:37:54.999Z</time></trkpt><trkpt lat="45.17209618955848" lon="9.004693259642957"><ele>85.4</ele><time>2026-04-11T14:37:55.999Z</time></trkpt><trkpt lat="45.172027101612386" lon="9.004623739785357"><ele>85.6</ele><time>2026-04-11T14:37:56.999Z</time></trkpt><trkpt lat="45.17194335603661" lon="9.00454083727994"><ele>85.8</ele><time>2026-04-11T14:37:57.999Z</time></trkpt><trkpt lat="45.171848614097584" lon="9.00445677629735"><ele>86.0</ele><time>2026-04-11T14:37:58.999Z</time></trkpt><trkpt lat="45.17175065245143" lon="9.004378903046844"><ele>86.0</ele><time>2026-04-11T14:37:59.999Z</time></trkpt><trkpt lat="45.17165012467113" lon="9.0043045143274"><ele>86.0</ele><time>2026-04-11T14:38:00.999Z</time></trkpt><trkpt lat="45.17155682145566" lon="9.004235143311735"><ele>86.0</ele><time>2026-04-11T14:38:01.999Z</time></trkpt><trkpt lat="45.1715136619529" lon="9.004110611877454"><ele>86.0</ele><time>2026-04-11T14:38:02.999Z</time></trkpt><trkpt lat="45.17143481934408" lon="9.004018950653023"><ele>86.0</ele><time>2026-04-11T14:38:04.999Z</time></trkpt><trkpt lat="45.17141249407181" lon="9.003883600472392"><ele>85.8</ele><time>2026-04-11T14:38:06.999Z</time></trkpt><trkpt lat="45.171419655295104" lon="9.003777297999983"><ele>85.6</ele><time>2026-04-11T14:38:07.999Z</time></trkpt><trkpt lat="45.17144408558848" lon="9.003646942186723"><ele>85.4</ele><time>2026-04-11T14:38:08.999Z</time></trkpt><trkpt lat="45.17144665181927" lon="9.003498545748734"><ele>85.2</ele><time>2026-04-11T14:38:09.999Z</time></trkpt><trkpt lat="45.17154976246145" lon="9.003361521507657"><ele>85.0</ele><time>2026-04-11T14:38:10.999Z</time></trkpt><trkpt lat="45.171622829506866" lon="9.003207583615898"><ele>85.0</ele><time>2026-04-11T14:38:11.999Z</time></trkpt><trkpt lat="45.171691810838" lon="9.003059903305425"><ele>85.0</ele><time>2026-04-11T14:38:12.999Z</time></trkpt><trkpt lat="45.17177893769139" lon="9.002901914841628"><ele>85.0</ele><time>2026-04-11T14:38:13.999Z</time></trkpt><trkpt lat="45.171863495000125" lon="9.002714715299023"><ele>85.0</ele><time>2026-04-11T14:38:14.999Z</time></trkpt><trkpt lat="45.171946345000364" lon="9.002539867966654"><ele>85.0</ele><time>2026-04-11T14:38:15.999Z</time></trkpt><trkpt lat="45.17201625042194" lon="9.002386514242625"><ele>85.0</ele><time>2026-04-11T14:38:16.999Z</time></trkpt><trkpt lat="45.17207957177816" lon="9.002260824314902"><ele>85.0</ele><time>2026-04-11T14:38:17.999Z</time></trkpt><trkpt lat="45.17213497620181" lon="9.002155043786285"><ele>85.0</ele><time>2026-04-11T14:38:18.999Z</time></trkpt><trkpt lat="45.17217597032331" lon="9.002066441164766"><ele>85.0</ele><time>2026-04-11T14:38:19.999Z</time></trkpt><trkpt lat="45.172224905134094" lon="9.001977384423157"><ele>85.0</ele><time>2026-04-11T14:38:20.999Z</time></trkpt><trkpt lat="45.172280841500815" lon="9.001890302726943"><ele>85.0</ele><time>2026-04-11T14:38:21.999Z</time></trkpt><trkpt lat="45.17233715342808" lon="9.001841964198492"><ele>85.0</ele><time>2026-04-11T14:38:22.999Z</time></trkpt><trkpt lat="45.17241162381247" lon="9.001788778169981"><ele>85.0</ele><time>2026-04-11T14:38:23.999Z</time></trkpt><trkpt lat="45.17245761206945" lon="9.001693249075933"><ele>85.0</ele><time>2026-04-11T14:38:24.999Z</time></trkpt><trkpt lat="45.172480889745536" lon="9.001578120273262"><ele>85.0</ele><time>2026-04-11T14:38:25.999Z</time></trkpt><trkpt lat="45.17245131323043" lon="9.001461565939628"><ele>85.0</ele><time>2026-04-11T14:38:26.999Z</time></trkpt><trkpt lat="45.17252240815572" lon="9.001340726964589"><ele>85.0</ele><time>2026-04-11T14:38:27.999Z</time></trkpt><trkpt lat="45.1725794179969" lon="9.001247696077339"><ele>85.0</ele><time>2026-04-11T14:38:28.999Z</time></trkpt><trkpt lat="45.17265330293585" lon="9.001109274172487"><ele>85.0</ele><time>2026-04-11T14:38:29.999Z</time></trkpt><trkpt lat="45.17270469174221" lon="9.00097093936566"><ele>85.0</ele><time>2026-04-11T14:38:30.999Z</time></trkpt><trkpt lat="45.17277252878254" lon="9.00084160549319"><ele>85.0</ele><time>2026-04-11T14:38:31.999Z</time></trkpt><trkpt lat="45.17283761414529" lon="9.000710180796789"><ele>85.0</ele><time>2026-04-11T14:38:32.999Z</time></trkpt><trkpt lat="45.172908548058956" lon="9.000569512625418"><ele>85.0</ele><time>2026-04-11T14:38:33.999Z</time></trkpt><trkpt lat="45.1729794822957" lon="9.000417775211648"><ele>85.0</ele><time>2026-04-11T14:38:34.999Z</time></trkpt><trkpt lat="45.17305835294696" lon="9.000252741060317"><ele>85.0</ele><time>2026-04-11T14:38:35.999Z</time></trkpt><trkpt lat="45.173138170189155" lon="9.000093261879664"><ele>85.0</ele><time>2026-04-11T14:38:36.999Z</time></trkpt><trkpt lat="45.17321836433013" lon="8.999936387084597"><ele>85.0</ele><time>2026-04-11T14:38:37.999Z</time></trkpt><trkpt lat="45.17328875696113" lon="8.999774447813456"><ele>85.0</ele><time>2026-04-11T14:38:38.999Z</time></trkpt><trkpt lat="45.17336138179252" lon="8.999633049302474"><ele>85.5</ele><time>2026-04-11T14:38:39.999Z</time></trkpt><trkpt lat="45.17342310357328" lon="8.999501278651005"><ele>86.0</ele><time>2026-04-11T14:38:40.999Z</time></trkpt><trkpt lat="45.17348892531281" lon="8.999369443104293"><ele>86.5</ele><time>2026-04-11T14:38:41.999Z</time></trkpt><trkpt lat="45.17355598875676" lon="8.999233860056766"><ele>87.0</ele><time>2026-04-11T14:38:42.999Z</time></trkpt><trkpt lat="45.1736248447509" lon="8.999090271815104"><ele>87.0</ele><time>2026-04-11T14:38:43.999Z</time></trkpt><trkpt lat="45.17369112602139" lon="8.998959323612949"><ele>87.0</ele><time>2026-04-11T14:38:44.999Z</time></trkpt><trkpt lat="45.173750873188396" lon="8.998825162447453"><ele>87.0</ele><time>2026-04-11T14:38:45.999Z</time></trkpt><trkpt lat="45.173815212263904" lon="8.998692634332556"><ele>87.0</ele><time>2026-04-11T14:38:46.999Z</time></trkpt><trkpt lat="45.17387980360077" lon="8.998567583869086"><ele>87.0</ele><time>2026-04-11T14:38:47.999Z</time></trkpt><trkpt lat="45.17393895908304" lon="8.998441499468818"><ele>87.0</ele><time>2026-04-11T14:38:48.999Z</time></trkpt><trkpt lat="45.17400356608325" lon="8.998317277130836"><ele>87.0</ele><time>2026-04-11T14:38:49.999Z</time></trkpt><trkpt lat="45.17407093443211" lon="8.998177213913499"><ele>87.0</ele><time>2026-04-11T14:38:50.999Z</time></trkpt><trkpt lat="45.174139675655695" lon="8.998038298101438"><ele>87.0</ele><time>2026-04-11T14:38:51.999Z</time></trkpt><trkpt lat="45.17420419370282" lon="8.997905173597808"><ele>87.0</ele><time>2026-04-11T14:38:52.998Z</time></trkpt><trkpt lat="45.17426199137973" lon="8.997782803263297"><ele>87.0</ele><time>2026-04-11T14:38:53.998Z</time></trkpt><trkpt lat="45.174315707508754" lon="8.997673671851702"><ele>87.0</ele><time>2026-04-11T14:38:54.998Z</time></trkpt><trkpt lat="45.174367836477956" lon="8.997579544460564"><ele>87.0</ele><time>2026-04-11T14:38:55.998Z</time></trkpt><trkpt lat="45.17442133650753" lon="8.99749585194898"><ele>87.0</ele><time>2026-04-11T14:38:56.998Z</time></trkpt><trkpt lat="45.17447532272866" lon="8.997423537236221"><ele>87.0</ele><time>2026-04-11T14:38:57.998Z</time></trkpt><trkpt lat="45.17452555436259" lon="8.99736356773444"><ele>86.83333333333333</ele><time>2026-04-11T14:38:58.998Z</time></trkpt><trkpt lat="45.17457692695372" lon="8.997303834408022"><ele>86.66666666666667</ele><time>2026-04-11T14:38:59.998Z</time></trkpt><trkpt lat="45.17463449544607" lon="8.997225947300125"><ele>86.5</ele><time>2026-04-11T14:39:00.998Z</time></trkpt><trkpt lat="45.17469339017403" lon="8.997148209649094"><ele>86.33333333333334</ele><time>2026-04-11T14:39:01.998Z</time></trkpt><trkpt lat="45.17475570836986" lon="8.997067437403434"><ele>86.16666666666667</ele><time>2026-04-11T14:39:02.998Z</time></trkpt><trkpt lat="45.17481227270921" lon="8.99698773927937"><ele>86.0</ele><time>2026-04-11T14:39:03.998Z</time></trkpt><trkpt lat="45.17485187607685" lon="8.996909502105781"><ele>86.0</ele><time>2026-04-11T14:39:04.998Z</time></trkpt><trkpt lat="45.17488520444487" lon="8.996813267808884"><ele>86.0</ele><time>2026-04-11T14:39:05.998Z</time></trkpt><trkpt lat="45.17491035263303" lon="8.996711186800395"><ele>86.0</ele><time>2026-04-11T14:39:06.998Z</time></trkpt><trkpt lat="45.17493757691426" lon="8.996548390105037"><ele>86.0</ele><time>2026-04-11T14:39:08.998Z</time></trkpt><trkpt lat="45.17487172545689" lon="8.996486093658573"><ele>86.0</ele><time>2026-04-11T14:39:09.998Z</time></trkpt><trkpt lat="45.174773892427865" lon="8.996528160905338"><ele>86.0</ele><time>2026-04-11T14:39:10.998Z</time></trkpt><trkpt lat="45.174687052420666" lon="8.996578956620882"><ele>86.0</ele><time>2026-04-11T14:39:11.998Z</time></trkpt><trkpt lat="45.17459332021931" lon="8.996641572027078"><ele>86.0</ele><time>2026-04-11T14:39:12.998Z</time></trkpt><trkpt lat="45.17449858240325" lon="8.996677759090701"><ele>86.0</ele><time>2026-04-11T14:39:13.998Z</time></trkpt><trkpt lat="45.174411962940134" lon="8.996675833859376"><ele>86.0</ele><time>2026-04-11T14:39:14.998Z</time></trkpt><trkpt lat="45.174308280654536" lon="8.996646164376452"><ele>86.0</ele><time>2026-04-11T14:39:15.998Z</time></trkpt><trkpt lat="45.17419690655941" lon="8.99660796660965"><ele>86.0</ele><time>2026-04-11T14:39:16.998Z</time></trkpt><trkpt lat="45.17407551245457" lon="8.996579077651079"><ele>86.0</ele><time>2026-04-11T14:39:17.998Z</time></trkpt><trkpt lat="45.17396145711927" lon="8.996541706971831"><ele>86.0</ele><time>2026-04-11T14:39:18.998Z</time></trkpt><trkpt lat="45.17385213244718" lon="8.996494824084644"><ele>86.25</ele><time>2026-04-11T14:39:19.998Z</time></trkpt><trkpt lat="45.17375079094625" lon="8.996446873135502"><ele>86.5</ele><time>2026-04-11T14:39:20.998Z</time></trkpt><trkpt lat="45.17364943314082" lon="8.996371384179907"><ele>86.75</ele><time>2026-04-11T14:39:21.998Z</time></trkpt><trkpt lat="45.17353947588384" lon="8.99630943549081"><ele>87.0</ele><time>2026-04-11T14:39:22.998Z</time></trkpt><trkpt lat="45.173426492800225" lon="8.996248538046009"><ele>87.0</ele><time>2026-04-11T14:39:23.998Z</time></trkpt><trkpt lat="45.17331195408451" lon="8.99621132110992"><ele>87.0</ele><time>2026-04-11T14:39:24.999Z</time></trkpt><trkpt lat="45.17321744785321" lon="8.996158858452453"><ele>87.0</ele><time>2026-04-11T14:39:25.999Z</time></trkpt><trkpt lat="45.17313102381867" lon="8.996113758537428"><ele>87.0</ele><time>2026-04-11T14:39:26.999Z</time></trkpt><trkpt lat="45.17305384889981" lon="8.996078484795866"><ele>87.0</ele><time>2026-04-11T14:39:27.999Z</time></trkpt><trkpt lat="45.17296746487059" lon="8.99605032341346"><ele>86.75</ele><time>2026-04-11T14:39:28.999Z</time></trkpt><trkpt lat="45.17286267314123" lon="8.996029655874063"><ele>86.5</ele><time>2026-04-11T14:39:29.999Z</time></trkpt><trkpt lat="45.17273777303934" lon="8.996015105701671"><ele>86.25</ele><time>2026-04-11T14:39:30.999Z</time></trkpt><trkpt lat="45.17261224928889" lon="8.996004856151227"><ele>86.0</ele><time>2026-04-11T14:39:31.999Z</time></trkpt><trkpt lat="45.17248645047024" lon="8.99594683628128"><ele>86.0</ele><time>2026-04-11T14:39:32.999Z</time></trkpt><trkpt lat="45.17235664960159" lon="8.995908574729917"><ele>86.0</ele><time>2026-04-11T14:39:33.999Z</time></trkpt><trkpt lat="45.172227706840154" lon="8.995882761298326"><ele>86.0</ele><time>2026-04-11T14:39:34.999Z</time></trkpt><trkpt lat="45.17212501243986" lon="8.995815606498946"><ele>86.0</ele><time>2026-04-11T14:39:35.999Z</time></trkpt><trkpt lat="45.1720396869851" lon="8.995795205680668"><ele>86.25</ele><time>2026-04-11T14:39:36.999Z</time></trkpt><trkpt lat="45.17198570141058" lon="8.995730079713095"><ele>86.5</ele><time>2026-04-11T14:39:38.999Z</time></trkpt><trkpt lat="45.172067102756316" lon="8.995536342359761"><ele>86.75</ele><time>2026-04-11T14:39:40.999Z</time></trkpt><trkpt lat="45.172107270714875" lon="8.995406489516887"><ele>87.0</ele><time>2026-04-11T14:39:41.999Z</time></trkpt><trkpt lat="45.172168696236405" lon="8.995252049352214"><ele>87.0</ele><time>2026-04-11T14:39:42.999Z</time></trkpt><trkpt lat="45.172218275991916" lon="8.995096971471936"><ele>87.0</ele><time>2026-04-11T14:39:43.999Z</time></trkpt><trkpt lat="45.17227606974203" lon="8.994931296746403"><ele>87.0</ele><time>2026-04-11T14:39:44.999Z</time></trkpt><trkpt lat="45.17233777019892" lon="8.994755080724827"><ele>87.0</ele><time>2026-04-11T14:39:45.999Z</time></trkpt><trkpt lat="45.17240555537435" lon="8.994574050132677"><ele>87.25</ele><time>2026-04-11T14:39:46.999Z</time></trkpt><trkpt lat="45.1724689499266" lon="8.994398633074269"><ele>87.5</ele><time>2026-04-11T14:39:47.999Z</time></trkpt><trkpt lat="45.17252845053051" lon="8.994231079766081"><ele>87.75</ele><time>2026-04-11T14:39:48.999Z</time></trkpt><trkpt lat="45.17258876152824" lon="8.994066172048894"><ele>88.0</ele><time>2026-04-11T14:39:49.999Z</time></trkpt><trkpt lat="45.17263978480193" lon="8.993898053061475"><ele>87.75</ele><time>2026-04-11T14:39:50.999Z</time></trkpt><trkpt lat="45.1726922723656" lon="8.993724081432028"><ele>87.5</ele><time>2026-04-11T14:39:51.999Z</time></trkpt><trkpt lat="45.17274520403348" lon="8.993538846875575"><ele>87.25</ele><time>2026-04-11T14:39:52.999Z</time></trkpt><trkpt lat="45.1727938180023" lon="8.993367601997337"><ele>87.0</ele><time>2026-04-11T14:39:53.999Z</time></trkpt><trkpt lat="45.1728450904515" lon="8.993221727064501"><ele>87.0</ele><time>2026-04-11T14:39:54.999Z</time></trkpt><trkpt lat="45.172901832397606" lon="8.99307606841301"><ele>87.0</ele><time>2026-04-11T14:39:55.999Z</time></trkpt><trkpt lat="45.172988559645816" lon="8.992942875976944"><ele>87.0</ele><time>2026-04-11T14:39:56.999Z</time></trkpt><trkpt lat="45.17307881338355" lon="8.992807831070063"><ele>87.0</ele><time>2026-04-11T14:39:57.999Z</time></trkpt><trkpt lat="45.17316044033446" lon="8.992663348400272"><ele>87.39999999999999</ele><time>2026-04-11T14:39:58.999Z</time></trkpt><trkpt lat="45.17322006679882" lon="8.992513343132087"><ele>87.8</ele><time>2026-04-11T14:39:59.999Z</time></trkpt><trkpt lat="45.17326308730953" lon="8.992376692823864"><ele>88.2</ele><time>2026-04-11T14:40:00.999Z</time></trkpt><trkpt lat="45.173300875077885" lon="8.992257158682989"><ele>88.6</ele><time>2026-04-11T14:40:01.999Z</time></trkpt><trkpt lat="45.17334450333957" lon="8.992129388972259"><ele>89.0</ele><time>2026-04-11T14:40:02.999Z</time></trkpt><trkpt lat="45.173396225628586" lon="8.991986591820718"><ele>89.0</ele><time>2026-04-11T14:40:03.999Z</time></trkpt><trkpt lat="45.17344985522075" lon="8.991840566925102"><ele>89.0</ele><time>2026-04-11T14:40:04.999Z</time></trkpt><trkpt lat="45.17350304558397" lon="8.991694036068058"><ele>89.0</ele><time>2026-04-11T14:40:05.999Z</time></trkpt><trkpt lat="45.17355910500747" lon="8.991550000075259"><ele>89.0</ele><time>2026-04-11T14:40:06.999Z</time></trkpt><trkpt lat="45.17362252245762" lon="8.99139960431002"><ele>89.25</ele><time>2026-04-11T14:40:07.999Z</time></trkpt><trkpt lat="45.17368855443193" lon="8.991254138961342"><ele>89.5</ele><time>2026-04-11T14:40:08.999Z</time></trkpt><trkpt lat="45.17375144858357" lon="8.991098462723688"><ele>89.75</ele><time>2026-04-11T14:40:09.999Z</time></trkpt><trkpt lat="45.173813794967415" lon="8.990951105228488"><ele>90.0</ele><time>2026-04-11T14:40:10.999Z</time></trkpt><trkpt lat="45.17387729797115" lon="8.990810116904774"><ele>90.0</ele><time>2026-04-11T14:40:11.999Z</time></trkpt><trkpt lat="45.17393565163131" lon="8.990677116010799"><ele>90.0</ele><time>2026-04-11T14:40:12.999Z</time></trkpt><trkpt lat="45.17398718787191" lon="8.99055216792039"><ele>90.0</ele><time>2026-04-11T14:40:13.999Z</time></trkpt><trkpt lat="45.17403488569432" lon="8.99043863888396"><ele>90.0</ele><time>2026-04-11T14:40:14.999Z</time></trkpt><trkpt lat="45.174074385699704" lon="8.99035128835015"><ele>90.0</ele><time>2026-04-11T14:40:15.999Z</time></trkpt><trkpt lat="45.174115569974866" lon="8.990258276700319"><ele>90.0</ele><time>2026-04-11T14:40:17.999Z</time></trkpt><trkpt lat="45.17410054109392" lon="8.990160285337732"><ele>90.0</ele><time>2026-04-11T14:40:19.999Z</time></trkpt><trkpt lat="45.17405651900166" lon="8.990077885552896"><ele>90.0</ele><time>2026-04-11T14:40:20.999Z</time></trkpt><trkpt lat="45.17399581784888" lon="8.99000089836428"><ele>90.0</ele><time>2026-04-11T14:40:21.999Z</time></trkpt><trkpt lat="45.17390975386209" lon="8.989879653932947"><ele>90.0</ele><time>2026-04-11T14:40:23.999Z</time></trkpt><trkpt lat="45.17385499597047" lon="8.989801300836376"><ele>90.0</ele><time>2026-04-11T14:40:24.999Z</time></trkpt><trkpt lat="45.17389593294237" lon="8.989634286775637"><ele>90.0</ele><time>2026-04-11T14:40:26.999Z</time></trkpt><trkpt lat="45.17392775161258" lon="8.989542185296825"><ele>90.0</ele><time>2026-04-11T14:40:27.999Z</time></trkpt><trkpt lat="45.17396821985113" lon="8.989428027320615"><ele>90.0</ele><time>2026-04-11T14:40:28.999Z</time></trkpt><trkpt lat="45.17401226514841" lon="8.9893048705752"><ele>90.0</ele><time>2026-04-11T14:40:29.999Z</time></trkpt><trkpt lat="45.17406495589912" lon="8.989159462865425"><ele>90.0</ele><time>2026-04-11T14:40:30.999Z</time></trkpt><trkpt lat="45.17412479237848" lon="8.988994335497866"><ele>90.0</ele><time>2026-04-11T14:40:31.999Z</time></trkpt><trkpt lat="45.174185790793025" lon="8.988825232916176"><ele>90.0</ele><time>2026-04-11T14:40:32.999Z</time></trkpt><trkpt lat="45.174248382837085" lon="8.988652017671196"><ele>90.0</ele><time>2026-04-11T14:40:33.999Z</time></trkpt><trkpt lat="45.17430581313684" lon="8.988493143705927"><ele>90.0</ele><time>2026-04-11T14:40:34.999Z</time></trkpt><trkpt lat="45.17435512662276" lon="8.98835484466512"><ele>89.83333333333333</ele><time>2026-04-11T14:40:35.999Z</time></trkpt><trkpt lat="45.17439748323047" lon="8.988236056099787"><ele>89.66666666666667</ele><time>2026-04-11T14:40:36.999Z</time></trkpt><trkpt lat="45.1744325939773" lon="8.988137588457713"><ele>89.5</ele><time>2026-04-11T14:40:37.999Z</time></trkpt><trkpt lat="45.174475556108575" lon="8.98804975213166"><ele>89.33333333333334</ele><time>2026-04-11T14:40:38.999Z</time></trkpt><trkpt lat="45.17453544326372" lon="8.987989681655494"><ele>89.16666666666667</ele><time>2026-04-11T14:40:39.999Z</time></trkpt><trkpt lat="45.17461426850998" lon="8.987978548455445"><ele>89.0</ele><time>2026-04-11T14:40:40.999Z</time></trkpt><trkpt lat="45.17471145484714" lon="8.987977484917177"><ele>89.0</ele><time>2026-04-11T14:40:41.999Z</time></trkpt><trkpt lat="45.174817636635396" lon="8.9879921979953"><ele>89.0</ele><time>2026-04-11T14:40:42.998Z</time></trkpt><trkpt lat="45.174966665654644" lon="8.988023877116559"><ele>89.0</ele><time>2026-04-11T14:40:43.998Z</time></trkpt><trkpt lat="45.17511523626495" lon="8.988057778030207"><ele>89.0</ele><time>2026-04-11T14:40:44.998Z</time></trkpt><trkpt lat="45.175273156486256" lon="8.98809359846011"><ele>89.0</ele><time>2026-04-11T14:40:45.998Z</time></trkpt><trkpt lat="45.17542695794586" lon="8.988127602409051"><ele>89.0</ele><time>2026-04-11T14:40:46.998Z</time></trkpt><trkpt lat="45.17557367271417" lon="8.988158518060674"><ele>89.0</ele><time>2026-04-11T14:40:47.998Z</time></trkpt><trkpt lat="45.175725656626675" lon="8.988166036167808"><ele>88.5</ele><time>2026-04-11T14:40:48.998Z</time></trkpt><trkpt lat="45.175874955055974" lon="8.988193293738039"><ele>88.0</ele><time>2026-04-11T14:40:49.998Z</time></trkpt><trkpt lat="45.17600486227588" lon="8.988241849864082"><ele>87.5</ele><time>2026-04-11T14:40:50.998Z</time></trkpt><trkpt lat="45.176130669757846" lon="8.988264438464533"><ele>87.0</ele><time>2026-04-11T14:40:51.998Z</time></trkpt><trkpt lat="45.17626162475444" lon="8.988286762314331"><ele>87.0</ele><time>2026-04-11T14:40:52.998Z</time></trkpt><trkpt lat="45.176389420861625" lon="8.988307596614005"><ele>87.0</ele><time>2026-04-11T14:40:53.998Z</time></trkpt><trkpt lat="45.17650165238107" lon="8.98831609783735"><ele>87.0</ele><time>2026-04-11T14:40:54.998Z</time></trkpt><trkpt lat="45.17660515225084" lon="8.988334553139566"><ele>87.0</ele><time>2026-04-11T14:40:55.998Z</time></trkpt><trkpt lat="45.17670593283432" lon="8.988340451668908"><ele>87.0</ele><time>2026-04-11T14:40:56.998Z</time></trkpt><trkpt lat="45.17680307599685" lon="8.98839329866764"><ele>87.19999999999999</ele><time>2026-04-11T14:40:57.998Z</time></trkpt><trkpt lat="45.17689642324582" lon="8.988444256264922"><ele>87.4</ele><time>2026-04-11T14:40:58.998Z</time></trkpt><trkpt lat="45.17698911018042" lon="8.988508725618852"><ele>87.6</ele><time>2026-04-11T14:40:59.998Z</time></trkpt><trkpt lat="45.177080400507066" lon="8.988579962719221"><ele>87.80000000000001</ele><time>2026-04-11T14:41:00.998Z</time></trkpt><trkpt lat="45.17718072172764" lon="8.98866479606171"><ele>88.0</ele><time>2026-04-11T14:41:01.998Z</time></trkpt><trkpt lat="45.17728409770307" lon="8.988730983209406"><ele>88.4</ele><time>2026-04-11T14:41:02.998Z</time></trkpt><trkpt lat="45.177366640603346" lon="8.988811532714356"><ele>88.80000000000001</ele><time>2026-04-11T14:41:03.998Z</time></trkpt><trkpt lat="45.17744624540975" lon="8.988887031942623"><ele>89.2</ele><time>2026-04-11T14:41:04.998Z</time></trkpt><trkpt lat="45.17752512787461" lon="8.98895866032751"><ele>89.6</ele><time>2026-04-11T14:41:05.998Z</time></trkpt><trkpt lat="45.17761004075294" lon="8.989029373821541"><ele>90.0</ele><time>2026-04-11T14:41:06.998Z</time></trkpt><trkpt lat="45.17769308140407" lon="8.989095563562396"><ele>90.0</ele><time>2026-04-11T14:41:07.998Z</time></trkpt><trkpt lat="45.17776977320805" lon="8.989144595411343"><ele>90.0</ele><time>2026-04-11T14:41:08.998Z</time></trkpt><trkpt lat="45.177828187205144" lon="8.98918854991077"><ele>90.0</ele><time>2026-04-11T14:41:09.998Z</time></trkpt><trkpt lat="45.177885166940094" lon="8.989230486928662"><ele>90.0</ele><time>2026-04-11T14:41:11.998Z</time></trkpt><trkpt lat="45.17795122535129" lon="8.989203714385427"><ele>90.0</ele><time>2026-04-11T14:41:17.998Z</time></trkpt><trkpt lat="45.17798843031118" lon="8.989106567319682"><ele>90.0</ele><time>2026-04-11T14:41:18.998Z</time></trkpt><trkpt lat="45.178010027528124" lon="8.98895899056521"><ele>90.0</ele><time>2026-04-11T14:41:19.998Z</time></trkpt><trkpt lat="45.17804171584835" lon="8.98877866374571"><ele>90.0</ele><time>2026-04-11T14:41:20.998Z</time></trkpt><trkpt lat="45.178097243379135" lon="8.988573214133138"><ele>90.0</ele><time>2026-04-11T14:41:21.998Z</time></trkpt><trkpt lat="45.17815887374059" lon="8.988359441815119"><ele>90.0</ele><time>2026-04-11T14:41:22.998Z</time></trkpt><trkpt lat="45.17821963595988" lon="8.988141102163503"><ele>90.0</ele><time>2026-04-11T14:41:23.998Z</time></trkpt><trkpt lat="45.17826507770555" lon="8.98797426499869"><ele>90.0</ele><time>2026-04-11T14:41:24.998Z</time></trkpt><trkpt lat="45.178298801793915" lon="8.987853650429946"><ele>90.0</ele><time>2026-04-11T14:41:25.998Z</time></trkpt><trkpt lat="45.17832674319057" lon="8.987730548559453"><ele>90.0</ele><time>2026-04-11T14:41:26.998Z</time></trkpt><trkpt lat="45.17836404147925" lon="8.98761010598087"><ele>90.0</ele><time>2026-04-11T14:41:27.998Z</time></trkpt><trkpt lat="45.178403762952634" lon="8.987463648487145"><ele>90.0</ele><time>2026-04-11T14:41:28.998Z</time></trkpt><trkpt lat="45.17844968825415" lon="8.987292117167756"><ele>90.0</ele><time>2026-04-11T14:41:29.998Z</time></trkpt><trkpt lat="45.17849245254187" lon="8.98709901055171"><ele>90.0</ele><time>2026-04-11T14:41:30.999Z</time></trkpt><trkpt lat="45.17853989294808" lon="8.98693168775171"><ele>90.0</ele><time>2026-04-11T14:41:31.999Z</time></trkpt><trkpt lat="45.17857854573966" lon="8.986775725223803"><ele>89.75</ele><time>2026-04-11T14:41:32.999Z</time></trkpt><trkpt lat="45.17862341837318" lon="8.98659640371777"><ele>89.5</ele><time>2026-04-11T14:41:33.999Z</time></trkpt><trkpt lat="45.17867581935179" lon="8.986404685859707"><ele>89.25</ele><time>2026-04-11T14:41:34.999Z</time></trkpt><trkpt lat="45.17872931311953" lon="8.986201591446848"><ele>89.0</ele><time>2026-04-11T14:41:35.999Z</time></trkpt><trkpt lat="45.1787866119716" lon="8.985985068602389"><ele>89.0</ele><time>2026-04-11T14:41:36.999Z</time></trkpt><trkpt lat="45.17884338078758" lon="8.985769889960773"><ele>89.0</ele><time>2026-04-11T14:41:37.999Z</time></trkpt><trkpt lat="45.17890066246436" lon="8.985566584618304"><ele>89.0</ele><time>2026-04-11T14:41:38.999Z</time></trkpt><trkpt lat="45.17895886178493" lon="8.985366183086947"><ele>89.0</ele><time>2026-04-11T14:41:39.999Z</time></trkpt><trkpt lat="45.17901484104296" lon="8.985162406964239"><ele>89.0</ele><time>2026-04-11T14:41:40.999Z</time></trkpt><trkpt lat="45.17907116059651" lon="8.984956709656021"><ele>89.0</ele><time>2026-04-11T14:41:41.999Z</time></trkpt><trkpt lat="45.17912334344815" lon="8.984762398516898"><ele>88.80000000000001</ele><time>2026-04-11T14:41:42.999Z</time></trkpt><trkpt lat="45.17916426461743" lon="8.984636588624307"><ele>88.60000000000001</ele><time>2026-04-11T14:41:43.999Z</time></trkpt><trkpt lat="45.17926685505831" lon="8.984614691464282"><ele>88.4</ele><time>2026-04-11T14:41:45.999Z</time></trkpt><trkpt lat="45.17935618856591" lon="8.984672349410724"><ele>88.2</ele><time>2026-04-11T14:41:46.999Z</time></trkpt><trkpt lat="45.179480101191395" lon="8.984671983370095"><ele>88.0</ele><time>2026-04-11T14:41:47.999Z</time></trkpt><trkpt lat="45.17961407925622" lon="8.984696342287267"><ele>88.0</ele><time>2026-04-11T14:41:48.999Z</time></trkpt><trkpt lat="45.17972895345896" lon="8.984677470429226"><ele>88.0</ele><time>2026-04-11T14:41:49.999Z</time></trkpt><trkpt lat="45.17982767476002" lon="8.984634891600153"><ele>88.0</ele><time>2026-04-11T14:41:50.999Z</time></trkpt><trkpt lat="45.17992397449148" lon="8.984575545319636"><ele>88.0</ele><time>2026-04-11T14:41:51.999Z</time></trkpt><trkpt lat="45.18001980904229" lon="8.984498663870886"><ele>88.0</ele><time>2026-04-11T14:41:52.999Z</time></trkpt><trkpt lat="45.18013402059059" lon="8.984422386869536"><ele>88.0</ele><time>2026-04-11T14:41:53.999Z</time></trkpt><trkpt lat="45.18022708025157" lon="8.984314461133819"><ele>88.0</ele><time>2026-04-11T14:41:54.999Z</time></trkpt><trkpt lat="45.18032219374029" lon="8.984211607256558"><ele>88.0</ele><time>2026-04-11T14:41:55.999Z</time></trkpt><trkpt lat="45.18042951231892" lon="8.984128386435264"><ele>88.0</ele><time>2026-04-11T14:41:56.999Z</time></trkpt><trkpt lat="45.18052208939889" lon="8.98403505830578"><ele>88.0</ele><time>2026-04-11T14:41:57.999Z</time></trkpt><trkpt lat="45.180605183062184" lon="8.98395317994561"><ele>88.0</ele><time>2026-04-11T14:41:58.999Z</time></trkpt><trkpt lat="45.1806810512644" lon="8.983878421386716"><ele>88.0</ele><time>2026-04-11T14:41:59.999Z</time></trkpt><trkpt lat="45.18076268722887" lon="8.983797979419299"><ele>88.0</ele><time>2026-04-11T14:42:00.999Z</time></trkpt><trkpt lat="45.18084819446029" lon="8.983709908252907"><ele>88.0</ele><time>2026-04-11T14:42:01.999Z</time></trkpt><trkpt lat="45.18091499370479" lon="8.983609867971884"><ele>88.0</ele><time>2026-04-11T14:42:02.999Z</time></trkpt><trkpt lat="45.180985359619896" lon="8.983524871978412"><ele>88.0</ele><time>2026-04-11T14:42:03.999Z</time></trkpt><trkpt lat="45.181056149788866" lon="8.983429635032698"><ele>88.0</ele><time>2026-04-11T14:42:04.999Z</time></trkpt><trkpt lat="45.18114736674197" lon="8.983343454824585"><ele>88.0</ele><time>2026-04-11T14:42:05.999Z</time></trkpt><trkpt lat="45.18125665163067" lon="8.983241834374082"><ele>88.0</ele><time>2026-04-11T14:42:06.999Z</time></trkpt><trkpt lat="45.181367237148564" lon="8.983138290951397"><ele>88.0</ele><time>2026-04-11T14:42:07.999Z</time></trkpt><trkpt lat="45.18147494323772" lon="8.983036056233102"><ele>88.0</ele><time>2026-04-11T14:42:08.999Z</time></trkpt><trkpt lat="45.18158878437498" lon="8.98294574244675"><ele>88.0</ele><time>2026-04-11T14:42:09.999Z</time></trkpt><trkpt lat="45.1816973296255" lon="8.9828415313652"><ele>88.0</ele><time>2026-04-11T14:42:10.999Z</time></trkpt><trkpt lat="45.181805994844375" lon="8.982744778418848"><ele>88.0</ele><time>2026-04-11T14:42:11.999Z</time></trkpt><trkpt lat="45.181902429546376" lon="8.98265634661038"><ele>88.0</ele><time>2026-04-11T14:42:12.999Z</time></trkpt><trkpt lat="45.18197142569327" lon="8.982593781718636"><ele>88.0</ele><time>2026-04-11T14:42:13.999Z</time></trkpt><trkpt lat="45.18204058360587" lon="8.982526442180538"><ele>88.0</ele><time>2026-04-11T14:42:14.999Z</time></trkpt><trkpt lat="45.1821206027612" lon="8.982445348659569"><ele>88.0</ele><time>2026-04-11T14:42:15.999Z</time></trkpt><trkpt lat="45.182195372011975" lon="8.982361105257883"><ele>88.16666666666666</ele><time>2026-04-11T14:42:16.999Z</time></trkpt><trkpt lat="45.18225994650015" lon="8.982279174677528"><ele>88.33333333333333</ele><time>2026-04-11T14:42:17.999Z</time></trkpt><trkpt lat="45.18231013972784" lon="8.982224254078986"><ele>88.5</ele><time>2026-04-11T14:42:18.999Z</time></trkpt><trkpt lat="45.18238436898376" lon="8.98214897982835"><ele>88.66666666666667</ele><time>2026-04-11T14:42:20.999Z</time></trkpt><trkpt lat="45.18248785457521" lon="8.98220431392689"><ele>88.83333333333334</ele><time>2026-04-11T14:42:21.999Z</time></trkpt><trkpt lat="45.18255568625547" lon="8.98218366114851"><ele>89.0</ele><time>2026-04-11T14:42:22.999Z</time></trkpt><trkpt lat="45.182638042985204" lon="8.982136649531784"><ele>89.4</ele><time>2026-04-11T14:42:24.999Z</time></trkpt><trkpt lat="45.18272076546256" lon="8.982141836761725"><ele>89.80000000000001</ele><time>2026-04-11T14:42:26.999Z</time></trkpt><trkpt lat="45.18281360258899" lon="8.982124515259388"><ele>90.19999999999999</ele><time>2026-04-11T14:42:28.999Z</time></trkpt><trkpt lat="45.18292800402944" lon="8.982094567976109"><ele>90.6</ele><time>2026-04-11T14:42:30.999Z</time></trkpt><trkpt lat="45.1829912174679" lon="8.9820915031176"><ele>91.0</ele><time>2026-04-11T14:42:31.999Z</time></trkpt><trkpt lat="45.18308672565734" lon="8.982076078694407"><ele>90.8</ele><time>2026-04-11T14:42:33.999Z</time></trkpt><trkpt lat="45.18320815425904" lon="8.982048046275654"><ele>90.6</ele><time>2026-04-11T14:45:15.999Z</time></trkpt><trkpt lat="45.183275507070846" lon="8.98203795592134"><ele>90.4</ele><time>2026-04-11T14:45:16.999Z</time></trkpt><trkpt lat="45.18338703286594" lon="8.982031934446786"><ele>90.2</ele><time>2026-04-11T14:45:18.999Z</time></trkpt><trkpt lat="45.183483729176594" lon="8.98200884919387"><ele>90.0</ele><time>2026-04-11T14:45:20.999Z</time></trkpt><trkpt lat="45.18358169235247" lon="8.981985461482465"><ele>90.0</ele><time>2026-04-11T14:45:23.999Z</time></trkpt><trkpt lat="45.183671374576925" lon="8.981911991672549"><ele>90.0</ele><time>2026-04-11T14:45:25.999Z</time></trkpt><trkpt lat="45.18378569268101" lon="8.981882212826074"><ele>90.0</ele><time>2026-04-11T14:45:27.998Z</time></trkpt><trkpt lat="45.18390942277077" lon="8.981846357122063"><ele>90.0</ele><time>2026-04-11T14:45:29.998Z</time></trkpt><trkpt lat="45.18401906568336" lon="8.981817835975649"><ele>90.0</ele><time>2026-04-11T14:45:31.998Z</time></trkpt><trkpt lat="45.18414360348487" lon="8.981789890392964"><ele>90.0</ele><time>2026-04-11T14:45:33.998Z</time></trkpt><trkpt lat="45.18421518989877" lon="8.981770497063595"><ele>90.0</ele><time>2026-04-11T14:45:34.998Z</time></trkpt><trkpt lat="45.18429737454884" lon="8.981750562829554"><ele>90.0</ele><time>2026-04-11T14:45:35.998Z</time></trkpt><trkpt lat="45.184385275144294" lon="8.981729870638365"><ele>90.0</ele><time>2026-04-11T14:45:36.998Z</time></trkpt><trkpt lat="45.1844739125555" lon="8.981699414522536"><ele>90.0</ele><time>2026-04-11T14:45:37.998Z</time></trkpt><trkpt lat="45.18456713011099" lon="8.981675450478221"><ele>90.0</ele><time>2026-04-11T14:45:38.998Z</time></trkpt><trkpt lat="45.18466295075965" lon="8.981648619763167"><ele>90.0</ele><time>2026-04-11T14:45:39.998Z</time></trkpt><trkpt lat="45.184760972416626" lon="8.981622204435677"><ele>90.0</ele><time>2026-04-11T14:45:40.998Z</time></trkpt><trkpt lat="45.18486494509907" lon="8.981595813557187"><ele>90.0</ele><time>2026-04-11T14:45:41.998Z</time></trkpt><trkpt lat="45.18496889283444" lon="8.98156635518904"><ele>89.8</ele><time>2026-04-11T14:45:42.999Z</time></trkpt><trkpt lat="45.185057747830626" lon="8.981542439934557"><ele>89.6</ele><time>2026-04-11T14:45:43.999Z</time></trkpt><trkpt lat="45.18515177089989" lon="8.981509729365264"><ele>89.4</ele><time>2026-04-11T14:45:44.999Z</time></trkpt><trkpt lat="45.18523847856599" lon="8.981475180391291"><ele>89.2</ele><time>2026-04-11T14:45:45.999Z</time></trkpt><trkpt lat="45.18532912397769" lon="8.981434437791277"><ele>89.0</ele><time>2026-04-11T14:45:46.999Z</time></trkpt><trkpt lat="45.18542652639725" lon="8.981385967784012"><ele>89.0</ele><time>2026-04-11T14:45:47.999Z</time></trkpt><trkpt lat="45.1855144039252" lon="8.981333990842394"><ele>89.0</ele><time>2026-04-11T14:45:48.999Z</time></trkpt><trkpt lat="45.185606110733914" lon="8.981274482135486"><ele>89.0</ele><time>2026-04-11T14:45:49.999Z</time></trkpt><trkpt lat="45.18570497652608" lon="8.981197286273572"><ele>89.0</ele><time>2026-04-11T14:45:50.999Z</time></trkpt><trkpt lat="45.185797474243465" lon="8.981125899576785"><ele>89.0</ele><time>2026-04-11T14:45:51.999Z</time></trkpt><trkpt lat="45.18588723346409" lon="8.981061652439399"><ele>89.0</ele><time>2026-04-11T14:45:52.999Z</time></trkpt><trkpt lat="45.18595075488884" lon="8.981016944594499"><ele>89.0</ele><time>2026-04-11T14:45:53.999Z</time></trkpt><trkpt lat="45.18604706725612" lon="8.98092666101796"><ele>89.0</ele><time>2026-04-11T14:45:55.999Z</time></trkpt><trkpt lat="45.186132560073546" lon="8.980842644542815"><ele>89.0</ele><time>2026-04-11T14:45:57.999Z</time></trkpt><trkpt lat="45.18623199677322" lon="8.980746694364104"><ele>89.0</ele><time>2026-04-11T14:45:59.999Z</time></trkpt><trkpt lat="45.1862923157752" lon="8.98069522192139"><ele>88.99999999999999</ele><time>2026-04-11T14:46:00.999Z</time></trkpt><trkpt lat="45.18635591716549" lon="8.980640465299851"><ele>89.0</ele><time>2026-04-11T14:46:01.999Z</time></trkpt><trkpt lat="45.18643326367122" lon="8.980583932426805"><ele>89.0</ele><time>2026-04-11T14:46:02.999Z</time></trkpt><trkpt lat="45.186511711047565" lon="8.980527812456419"><ele>89.0</ele><time>2026-04-11T14:46:03.999Z</time></trkpt><trkpt lat="45.18657372815431" lon="8.980483013307177"><ele>89.0</ele><time>2026-04-11T14:46:04.999Z</time></trkpt><trkpt lat="45.18662872801032" lon="8.980439190864825"><ele>88.99999999999999</ele><time>2026-04-11T14:46:05.999Z</time></trkpt><trkpt lat="45.18668276449763" lon="8.980389867331581"><ele>89.0</ele><time>2026-04-11T14:46:06.999Z</time></trkpt><trkpt lat="45.186743011643614" lon="8.980343065795836"><ele>89.0</ele><time>2026-04-11T14:46:07.999Z</time></trkpt><trkpt lat="45.18681264985133" lon="8.980287897602071"><ele>89.0</ele><time>2026-04-11T14:46:08.999Z</time></trkpt><trkpt lat="45.18688925815082" lon="8.980216227151997"><ele>89.0</ele><time>2026-04-11T14:46:09.999Z</time></trkpt><trkpt lat="45.186953662671606" lon="8.980159116571443"><ele>89.0</ele><time>2026-04-11T14:46:10.999Z</time></trkpt><trkpt lat="45.187021417699675" lon="8.980096127220683"><ele>89.0</ele><time>2026-04-11T14:46:11.999Z</time></trkpt><trkpt lat="45.187096834047225" lon="8.980028242102506"><ele>89.0</ele><time>2026-04-11T14:46:12.999Z</time></trkpt><trkpt lat="45.18716813357556" lon="8.979947403747218"><ele>89.0</ele><time>2026-04-11T14:46:13.999Z</time></trkpt><trkpt lat="45.18723136719175" lon="8.979869858046921"><ele>89.0</ele><time>2026-04-11T14:46:14.999Z</time></trkpt><trkpt lat="45.18729484115973" lon="8.979801879491319"><ele>89.0</ele><time>2026-04-11T14:46:15.999Z</time></trkpt><trkpt lat="45.18736450796357" lon="8.979719385858322"><ele>89.0</ele><time>2026-04-11T14:46:16.999Z</time></trkpt><trkpt lat="45.187416504335204" lon="8.979661390279135"><ele>89.0</ele><time>2026-04-11T14:46:17.999Z</time></trkpt><trkpt lat="45.18747872062216" lon="8.97959348788815"><ele>89.0</ele><time>2026-04-11T14:46:18.999Z</time></trkpt><trkpt lat="45.1875427617183" lon="8.979524563348749"><ele>88.66666666666667</ele><time>2026-04-11T14:46:19.999Z</time></trkpt><trkpt lat="45.18760021594801" lon="8.979480982250628"><ele>88.33333333333334</ele><time>2026-04-11T14:46:20.999Z</time></trkpt><trkpt lat="45.18766772019349" lon="8.979443584965859"><ele>88.0</ele><time>2026-04-11T14:46:21.999Z</time></trkpt><trkpt lat="45.187742821401336" lon="8.979406548679586"><ele>87.66666666666667</ele><time>2026-04-11T14:46:22.999Z</time></trkpt><trkpt lat="45.18781569875075" lon="8.97937176763577"><ele>87.33333333333333</ele><time>2026-04-11T14:46:23.999Z</time></trkpt><trkpt lat="45.187899666432536" lon="8.97934059656634"><ele>87.0</ele><time>2026-04-11T14:46:24.999Z</time></trkpt><trkpt lat="45.18798837587193" lon="8.97931524292868"><ele>87.0</ele><time>2026-04-11T14:46:25.999Z</time></trkpt><trkpt lat="45.188082745772206" lon="8.97930110251197"><ele>87.0</ele><time>2026-04-11T14:46:26.999Z</time></trkpt><trkpt lat="45.188173021067335" lon="8.979282806005278"><ele>87.0</ele><time>2026-04-11T14:46:27.999Z</time></trkpt><trkpt lat="45.18826413738931" lon="8.979260260601949"><ele>87.0</ele><time>2026-04-11T14:46:28.999Z</time></trkpt><trkpt lat="45.18835450547338" lon="8.979226033895474"><ele>87.0</ele><time>2026-04-11T14:46:29.999Z</time></trkpt><trkpt lat="45.188442916233214" lon="8.979178591523286"><ele>87.0</ele><time>2026-04-11T14:46:30.999Z</time></trkpt><trkpt lat="45.18852817573956" lon="8.979120632122564"><ele>87.0</ele><time>2026-04-11T14:46:31.999Z</time></trkpt><trkpt lat="45.18861854554143" lon="8.979054326095422"><ele>87.0</ele><time>2026-04-11T14:46:32.999Z</time></trkpt><trkpt lat="45.18870438406646" lon="8.978977221014553"><ele>87.0</ele><time>2026-04-11T14:46:33.999Z</time></trkpt><trkpt lat="45.188798276913914" lon="8.978891615677469"><ele>87.0</ele><time>2026-04-11T14:46:34.999Z</time></trkpt><trkpt lat="45.18889342627189" lon="8.978803337332387"><ele>87.0</ele><time>2026-04-11T14:46:35.999Z</time></trkpt><trkpt lat="45.18898665811712" lon="8.978726116212068"><ele>87.0</ele><time>2026-04-11T14:46:36.999Z</time></trkpt><trkpt lat="45.18908213338393" lon="8.978664199520496"><ele>87.0</ele><time>2026-04-11T14:46:37.999Z</time></trkpt><trkpt lat="45.18916912085639" lon="8.978626452433845"><ele>87.0</ele><time>2026-04-11T14:46:38.999Z</time></trkpt><trkpt lat="45.189267037320676" lon="8.978609152130943"><ele>87.0</ele><time>2026-04-11T14:46:39.999Z</time></trkpt><trkpt lat="45.18938180826278" lon="8.978604720806596"><ele>87.6</ele><time>2026-04-11T14:46:40.999Z</time></trkpt><trkpt lat="45.18949181882037" lon="8.978615087799959"><ele>88.19999999999999</ele><time>2026-04-11T14:46:41.999Z</time></trkpt><trkpt lat="45.1895945458227" lon="8.978632117678899"><ele>88.8</ele><time>2026-04-11T14:46:42.999Z</time></trkpt><trkpt lat="45.18971016610026" lon="8.978655478377815"><ele>89.4</ele><time>2026-04-11T14:46:43.999Z</time></trkpt><trkpt lat="45.18982015018646" lon="8.978681183272037"><ele>90.0</ele><time>2026-04-11T14:46:44.999Z</time></trkpt><trkpt lat="45.18992909217385" lon="8.978699113969434"><ele>90.8</ele><time>2026-04-11T14:46:45.999Z</time></trkpt><trkpt lat="45.190041773192384" lon="8.978717785777851"><ele>91.6</ele><time>2026-04-11T14:46:46.999Z</time></trkpt><trkpt lat="45.19014697240972" lon="8.978740978088297"><ele>92.4</ele><time>2026-04-11T14:46:47.999Z</time></trkpt><trkpt lat="45.19025590857136" lon="8.978763935288542"><ele>93.2</ele><time>2026-04-11T14:46:48.999Z</time></trkpt><trkpt lat="45.1903672937077" lon="8.978781611937626"><ele>94.0</ele><time>2026-04-11T14:46:49.999Z</time></trkpt><trkpt lat="45.19048052423871" lon="8.978787812859455"><ele>94.0</ele><time>2026-04-11T14:46:50.999Z</time></trkpt><trkpt lat="45.190595735418455" lon="8.97878860530117"><ele>94.0</ele><time>2026-04-11T14:46:51.999Z</time></trkpt><trkpt lat="45.19070445169029" lon="8.978783965356259"><ele>94.0</ele><time>2026-04-11T14:46:52.999Z</time></trkpt><trkpt lat="45.19082423974448" lon="8.978782020848245"><ele>94.0</ele><time>2026-04-11T14:46:53.999Z</time></trkpt><trkpt lat="45.19094861932088" lon="8.978772796017"><ele>92.75</ele><time>2026-04-11T14:46:54.999Z</time></trkpt><trkpt lat="45.19107700146601" lon="8.978758434700502"><ele>91.5</ele><time>2026-04-11T14:46:55.999Z</time></trkpt><trkpt lat="45.1912145524734" lon="8.978741984666817"><ele>90.25</ele><time>2026-04-11T14:46:56.999Z</time></trkpt><trkpt lat="45.191352959401904" lon="8.978717366889533"><ele>89.0</ele><time>2026-04-11T14:46:57.999Z</time></trkpt><trkpt lat="45.19147669912803" lon="8.97868923689596"><ele>89.0</ele><time>2026-04-11T14:46:58.999Z</time></trkpt><trkpt lat="45.19159500841083" lon="8.978652009425423"><ele>89.0</ele><time>2026-04-11T14:46:59.999Z</time></trkpt><trkpt lat="45.191697538039705" lon="8.978603835963014"><ele>89.0</ele><time>2026-04-11T14:47:00.999Z</time></trkpt><trkpt lat="45.19178850456257" lon="8.978541442778601"><ele>89.0</ele><time>2026-04-11T14:47:01.999Z</time></trkpt><trkpt lat="45.19188709569368" lon="8.978444773357602"><ele>89.25</ele><time>2026-04-11T14:47:02.999Z</time></trkpt><trkpt lat="45.191986649317975" lon="8.978329800807886"><ele>89.5</ele><time>2026-04-11T14:47:03.999Z</time></trkpt><trkpt lat="45.1920858409748" lon="8.978192032121337"><ele>89.75</ele><time>2026-04-11T14:47:04.999Z</time></trkpt><trkpt lat="45.19218829884053" lon="8.978025158473997"><ele>90.0</ele><time>2026-04-11T14:47:05.999Z</time></trkpt><trkpt lat="45.192274462052126" lon="8.977854225471173"><ele>90.0</ele><time>2026-04-11T14:47:06.999Z</time></trkpt><trkpt lat="45.19234969682487" lon="8.977695890792264"><ele>90.0</ele><time>2026-04-11T14:47:07.999Z</time></trkpt><trkpt lat="45.19240755462532" lon="8.977577700096258"><ele>90.0</ele><time>2026-04-11T14:47:08.999Z</time></trkpt><trkpt lat="45.19245756611646" lon="8.977477422283735"><ele>90.0</ele><time>2026-04-11T14:47:09.999Z</time></trkpt><trkpt lat="45.19251661682135" lon="8.977375783891613"><ele>90.0</ele><time>2026-04-11T14:47:10.999Z</time></trkpt><trkpt lat="45.192582693478535" lon="8.977253544189658"><ele>89.75</ele><time>2026-04-11T14:47:11.999Z</time></trkpt><trkpt lat="45.19264634734723" lon="8.977129456836932"><ele>89.5</ele><time>2026-04-11T14:47:12.999Z</time></trkpt><trkpt lat="45.1927167274545" lon="8.977000698571786"><ele>89.25</ele><time>2026-04-11T14:47:13.999Z</time></trkpt><trkpt lat="45.1927906259126" lon="8.976865852049514"><ele>89.0</ele><time>2026-04-11T14:47:14.999Z</time></trkpt><trkpt lat="45.19286507149677" lon="8.976730325476527"><ele>88.75</ele><time>2026-04-11T14:47:15.999Z</time></trkpt><trkpt lat="45.192943495936134" lon="8.976590704175054"><ele>88.5</ele><time>2026-04-11T14:47:16.999Z</time></trkpt><trkpt lat="45.1930206939618" lon="8.976442714922435"><ele>88.25</ele><time>2026-04-11T14:47:17.999Z</time></trkpt><trkpt lat="45.193100756385135" lon="8.976289489306339"><ele>88.0</ele><time>2026-04-11T14:47:18.999Z</time></trkpt><trkpt lat="45.19318182997342" lon="8.97614293531248"><ele>88.0</ele><time>2026-04-11T14:47:19.999Z</time></trkpt><trkpt lat="45.19325512825546" lon="8.97600634596071"><ele>88.0</ele><time>2026-04-11T14:47:20.999Z</time></trkpt><trkpt lat="45.1933222224755" lon="8.975876558766773"><ele>88.0</ele><time>2026-04-11T14:47:21.999Z</time></trkpt><trkpt lat="45.193389801224036" lon="8.975746095337195"><ele>88.0</ele><time>2026-04-11T14:47:22.999Z</time></trkpt><trkpt lat="45.19345145938079" lon="8.97563930792246"><ele>88.0</ele><time>2026-04-11T14:47:23.999Z</time></trkpt><trkpt lat="45.19350456874058" lon="8.97555688075827"><ele>88.0</ele><time>2026-04-11T14:47:24.999Z</time></trkpt><trkpt lat="45.19357452308618" lon="8.975442199075303"><ele>88.0</ele><time>2026-04-11T14:47:26.999Z</time></trkpt><trkpt lat="45.19365785234158" lon="8.9754095657397"><ele>88.0</ele><time>2026-04-11T14:47:28.999Z</time></trkpt><trkpt lat="45.19379026368473" lon="8.975456026537103"><ele>88.0</ele><time>2026-04-11T14:47:30.999Z</time></trkpt><trkpt lat="45.193701701627695" lon="8.975420732584283"><ele>88.0</ele><time>2026-04-11T14:48:14.999Z</time></trkpt><trkpt lat="45.19358034875207" lon="8.975459410511393"><ele>88.0</ele><time>2026-04-11T14:48:16.999Z</time></trkpt><trkpt lat="45.193518682139114" lon="8.97542906184809"><ele>88.0</ele><time>2026-04-11T14:48:18.999Z</time></trkpt><trkpt lat="45.193449529887296" lon="8.975659984494474"><ele>88.0</ele><time>2026-04-11T14:48:20.999Z</time></trkpt><trkpt lat="45.193368122062445" lon="8.975786935766418"><ele>88.0</ele><time>2026-04-11T14:48:22.999Z</time></trkpt><trkpt lat="45.19332476571739" lon="8.975853664569211"><ele>88.0</ele><time>2026-04-11T14:48:23.999Z</time></trkpt><trkpt lat="45.19324612024567" lon="8.975997991192914"><ele>88.0</ele><time>2026-04-11T14:48:25.999Z</time></trkpt><trkpt lat="45.1932059060363" lon="8.97607651300671"><ele>88.0</ele><time>2026-04-11T14:48:26.999Z</time></trkpt><trkpt lat="45.193143505614565" lon="8.976192953365523"><ele>88.0</ele><time>2026-04-11T14:48:28.999Z</time></trkpt><trkpt lat="45.193095602798536" lon="8.976285799701081"><ele>88.0</ele><time>2026-04-11T14:48:30.999Z</time></trkpt><trkpt lat="45.193048005141705" lon="8.976371471758153"><ele>88.0</ele><time>2026-04-11T14:48:32.999Z</time></trkpt><trkpt lat="45.193003690024" lon="8.976467294938178"><ele>88.0</ele><time>2026-04-11T14:48:34.999Z</time></trkpt><trkpt lat="45.19296312991168" lon="8.976559503933414"><ele>88.0</ele><time>2026-04-11T14:48:36.999Z</time></trkpt><trkpt lat="45.19291250212883" lon="8.976666260902018"><ele>88.0</ele><time>2026-04-11T14:48:39.999Z</time></trkpt><trkpt lat="45.19286225555879" lon="8.976753094660316"><ele>88.0</ele><time>2026-04-11T14:48:42.999Z</time></trkpt><trkpt lat="45.1928162476116" lon="8.97683632478661"><ele>88.0</ele><time>2026-04-11T14:48:44.999Z</time></trkpt><trkpt lat="45.19276772686097" lon="8.976906300523906"><ele>88.0</ele><time>2026-04-11T14:48:46.999Z</time></trkpt><trkpt lat="45.192708383359395" lon="8.976996425982827"><ele>88.0</ele><time>2026-04-11T14:48:48.999Z</time></trkpt><trkpt lat="45.1926428324771" lon="8.97712450083434"><ele>88.2</ele><time>2026-04-11T14:48:50.999Z</time></trkpt><trkpt lat="45.192578212752366" lon="8.97724879861123"><ele>88.4</ele><time>2026-04-11T14:48:52.999Z</time></trkpt><trkpt lat="45.19253781892065" lon="8.977319425980754"><ele>88.60000000000001</ele><time>2026-04-11T14:48:53.999Z</time></trkpt><trkpt lat="45.19249692188664" lon="8.977393433062193"><ele>88.80000000000001</ele><time>2026-04-11T14:48:54.999Z</time></trkpt><trkpt lat="45.19242798891638" lon="8.977530434141093"><ele>89.0</ele><time>2026-04-11T14:48:56.999Z</time></trkpt><trkpt lat="45.1923570851853" lon="8.977669984820666"><ele>89.16666666666667</ele><time>2026-04-11T14:48:58.999Z</time></trkpt><trkpt lat="45.192314801462885" lon="8.977748140678475"><ele>89.33333333333334</ele><time>2026-04-11T14:48:59.999Z</time></trkpt><trkpt lat="45.19224941238594" lon="8.97786913248154"><ele>89.5</ele><time>2026-04-11T14:49:01.999Z</time></trkpt><trkpt lat="45.19220322271635" lon="8.977952760657844"><ele>89.66666666666667</ele><time>2026-04-11T14:49:03.999Z</time></trkpt><trkpt lat="45.192160110477694" lon="8.978040458891954"><ele>89.83333333333333</ele><time>2026-04-11T14:49:07.999Z</time></trkpt><trkpt lat="45.19210602372958" lon="8.97813201079756"><ele>90.0</ele><time>2026-04-11T14:49:10.999Z</time></trkpt><trkpt lat="45.192045041968136" lon="8.978218618587633"><ele>90.0</ele><time>2026-04-11T14:49:12.999Z</time></trkpt><trkpt lat="45.191960483163" lon="8.978339845170012"><ele>90.0</ele><time>2026-04-11T14:49:14.999Z</time></trkpt><trkpt lat="45.19187174425068" lon="8.978431760985226"><ele>90.0</ele><time>2026-04-11T14:49:16.999Z</time></trkpt><trkpt lat="45.19178383853547" lon="8.978520456558147"><ele>90.0</ele><time>2026-04-11T14:49:18.999Z</time></trkpt><trkpt lat="45.191703447041" lon="8.978651486121823"><ele>89.83333333333333</ele><time>2026-04-11T14:49:20.999Z</time></trkpt><trkpt lat="45.19166861260886" lon="8.978741336581324"><ele>89.66666666666667</ele><time>2026-04-11T14:49:21.999Z</time></trkpt><trkpt lat="45.191644512721915" lon="8.978836120584042"><ele>89.5</ele><time>2026-04-11T14:49:22.999Z</time></trkpt><trkpt lat="45.191622976533985" lon="8.97894910082596"><ele>89.33333333333334</ele><time>2026-04-11T14:49:23.999Z</time></trkpt><trkpt lat="45.19160030914739" lon="8.979060331257575"><ele>89.16666666666667</ele><time>2026-04-11T14:49:24.999Z</time></trkpt><trkpt lat="45.19157725908669" lon="8.979171915506694"><ele>89.0</ele><time>2026-04-11T14:49:25.999Z</time></trkpt><trkpt lat="45.19155074157698" lon="8.979273124397405"><ele>89.0</ele><time>2026-04-11T14:49:26.999Z</time></trkpt><trkpt lat="45.19152500831317" lon="8.979377254458003"><ele>89.0</ele><time>2026-04-11T14:49:27.999Z</time></trkpt><trkpt lat="45.19149473107035" lon="8.979490031339397"><ele>89.0</ele><time>2026-04-11T14:49:28.999Z</time></trkpt><trkpt lat="45.19145911458843" lon="8.979609350540654"><ele>89.0</ele><time>2026-04-11T14:49:29.999Z</time></trkpt><trkpt lat="45.19142459138942" lon="8.97971881234452"><ele>89.0</ele><time>2026-04-11T14:49:30.999Z</time></trkpt><trkpt lat="45.1913909299516" lon="8.979830256371217"><ele>89.0</ele><time>2026-04-11T14:49:31.999Z</time></trkpt><trkpt lat="45.191366091615066" lon="8.97992050086158"><ele>89.0</ele><time>2026-04-11T14:49:32.999Z</time></trkpt><trkpt lat="45.19134251734258" lon="8.980015899521748"><ele>89.0</ele><time>2026-04-11T14:49:33.999Z</time></trkpt><trkpt lat="45.191313746540935" lon="8.9801226023779"><ele>89.0</ele><time>2026-04-11T14:49:34.999Z</time></trkpt><trkpt lat="45.19128298648161" lon="8.980232680514657"><ele>89.0</ele><time>2026-04-11T14:49:35.999Z</time></trkpt><trkpt lat="45.19123218542017" lon="8.98039258539323"><ele>89.0</ele><time>2026-04-11T14:49:37.999Z</time></trkpt><trkpt lat="45.191283039172504" lon="8.9804512687101"><ele>89.0</ele><time>2026-04-11T14:50:51.999Z</time></trkpt><trkpt lat="45.191374195716286" lon="8.980547767303209"><ele>89.0</ele><time>2026-04-11T14:50:53.999Z</time></trkpt><trkpt lat="45.19142848660319" lon="8.980593491283166"><ele>89.0</ele><time>2026-04-11T14:50:54.999Z</time></trkpt><trkpt lat="45.191532790689216" lon="8.980673181474891"><ele>89.0</ele><time>2026-04-11T14:50:56.999Z</time></trkpt><trkpt lat="45.19162900820016" lon="8.980759930489974"><ele>89.0</ele><time>2026-04-11T14:50:58.999Z</time></trkpt><trkpt lat="45.19172656620521" lon="8.98083868846851"><ele>89.0</ele><time>2026-04-11T14:51:00.999Z</time></trkpt><trkpt lat="45.19182643052082" lon="8.980923110312025"><ele>89.6</ele><time>2026-04-11T14:51:02.999Z</time></trkpt><trkpt lat="45.19189054381055" lon="8.981006280886017"><ele>90.2</ele><time>2026-04-11T14:51:04.999Z</time></trkpt><trkpt lat="45.191942002407224" lon="8.98110476500449"><ele>90.8</ele><time>2026-04-11T14:51:06.999Z</time></trkpt><trkpt lat="45.191989943175955" lon="8.981206290423351"><ele>91.39999999999999</ele><time>2026-04-11T14:51:08.999Z</time></trkpt><trkpt lat="45.192042139130876" lon="8.981288737229896"><ele>92.0</ele><time>2026-04-11T14:51:10.999Z</time></trkpt><trkpt lat="45.19213857066624" lon="8.981385566859773"><ele>92.0</ele><time>2026-04-11T14:51:12.999Z</time></trkpt><trkpt lat="45.19224736539425" lon="8.981464093483993"><ele>92.0</ele><time>2026-04-11T14:51:14.999Z</time></trkpt><trkpt lat="45.192357193981614" lon="8.981551074853321"><ele>92.0</ele><time>2026-04-11T14:51:16.999Z</time></trkpt><trkpt lat="45.19241418939496" lon="8.981600157915729"><ele>92.0</ele><time>2026-04-11T14:51:17.999Z</time></trkpt><trkpt lat="45.192472640380686" lon="8.981650076479424"><ele>92.0</ele><time>2026-04-11T14:51:18.999Z</time></trkpt><trkpt lat="45.19255661872928" lon="8.98171708951338"><ele>91.66666666666667</ele><time>2026-04-11T14:51:20.999Z</time></trkpt><trkpt lat="45.19263869252933" lon="8.981744687773123"><ele>91.33333333333334</ele><time>2026-04-11T14:51:23.999Z</time></trkpt><trkpt lat="45.192711973824416" lon="8.981716203452425"><ele>91.0</ele><time>2026-04-11T14:51:26.999Z</time></trkpt><trkpt lat="45.19277484882306" lon="8.981677289567594"><ele>90.66666666666667</ele><time>2026-04-11T14:51:28.999Z</time></trkpt><trkpt lat="45.192899216095455" lon="8.981635071333496"><ele>90.33333333333333</ele><time>2026-04-11T14:51:30.999Z</time></trkpt><trkpt lat="45.19295984816185" lon="8.981598495718423"><ele>90.0</ele><time>2026-04-11T14:51:31.999Z</time></trkpt><trkpt lat="45.19304590348044" lon="8.981525692599702"><ele>90.0</ele><time>2026-04-11T14:51:33.999Z</time></trkpt><trkpt lat="45.19310050507601" lon="8.981457251777554"><ele>90.0</ele><time>2026-04-11T14:51:35.999Z</time></trkpt><trkpt lat="45.193153154170396" lon="8.981375013181367"><ele>90.0</ele><time>2026-04-11T14:51:37.999Z</time></trkpt><trkpt lat="45.19319994531555" lon="8.981274897023168"><ele>90.0</ele><time>2026-04-11T14:51:39.999Z</time></trkpt><trkpt lat="45.19326200822625" lon="8.981159166093663"><ele>90.0</ele><time>2026-04-11T14:51:41.999Z</time></trkpt><trkpt lat="45.19331852050267" lon="8.98104259087087"><ele>90.0</ele><time>2026-04-11T14:51:43.999Z</time></trkpt><trkpt lat="45.193382974736856" lon="8.98092963431341"><ele>89.8</ele><time>2026-04-11T14:51:45.999Z</time></trkpt><trkpt lat="45.193446597464316" lon="8.980804638971774"><ele>89.6</ele><time>2026-04-11T14:51:47.999Z</time></trkpt><trkpt lat="45.19350285287228" lon="8.980699050337225"><ele>89.4</ele><time>2026-04-11T14:51:49.999Z</time></trkpt><trkpt lat="45.19356222870396" lon="8.98058148481901"><ele>89.2</ele><time>2026-04-11T14:51:51.999Z</time></trkpt><trkpt lat="45.19362181076173" lon="8.980463309591357"><ele>89.0</ele><time>2026-04-11T14:51:53.999Z</time></trkpt><trkpt lat="45.193671375541825" lon="8.980320406480608"><ele>89.0</ele><time>2026-04-11T14:51:55.999Z</time></trkpt><trkpt lat="45.19370571377014" lon="8.980164223474349"><ele>89.0</ele><time>2026-04-11T14:51:57.999Z</time></trkpt><trkpt lat="45.193740272240184" lon="8.980001192198813"><ele>89.0</ele><time>2026-04-11T14:51:59.999Z</time></trkpt><trkpt lat="45.193771370462855" lon="8.979834019608353"><ele>89.0</ele><time>2026-04-11T14:52:01.998Z</time></trkpt><trkpt lat="45.19379760352337" lon="8.97966372552986"><ele>89.16666666666667</ele><time>2026-04-11T14:52:03.998Z</time></trkpt><trkpt lat="45.19382450920782" lon="8.97951254799632"><ele>89.33333333333334</ele><time>2026-04-11T14:52:05.998Z</time></trkpt><trkpt lat="45.19385010171643" lon="8.979408244074692"><ele>89.5</ele><time>2026-04-11T14:52:09.998Z</time></trkpt><trkpt lat="45.19388034836803" lon="8.979320485080573"><ele>89.66666666666667</ele><time>2026-04-11T14:52:11.998Z</time></trkpt><trkpt lat="45.193921658513965" lon="8.979230352686612"><ele>89.83333333333333</ele><time>2026-04-11T14:52:13.998Z</time></trkpt><trkpt lat="45.19396494975953" lon="8.979100399775191"><ele>90.0</ele><time>2026-04-11T14:52:15.998Z</time></trkpt><trkpt lat="45.19400842447261" lon="8.978969004471114"><ele>89.0</ele><time>2026-04-11T14:52:17.998Z</time></trkpt><trkpt lat="45.19405150000156" lon="8.978834169895478"><ele>88.0</ele><time>2026-04-11T14:52:19.998Z</time></trkpt><trkpt lat="45.19410825735196" lon="8.978698138886866"><ele>87.0</ele><time>2026-04-11T14:52:21.998Z</time></trkpt><trkpt lat="45.194192463385875" lon="8.97860103147659"><ele>86.0</ele><time>2026-04-11T14:52:23.998Z</time></trkpt><trkpt lat="45.19429762386427" lon="8.978532507676354"><ele>85.0</ele><time>2026-04-11T14:52:25.999Z</time></trkpt><trkpt lat="45.194356480481304" lon="8.9784960543629"><ele>85.0</ele><time>2026-04-11T14:52:26.999Z</time></trkpt><trkpt lat="45.19446461640729" lon="8.978449627256461"><ele>85.0</ele><time>2026-04-11T14:52:28.999Z</time></trkpt><trkpt lat="45.1945617392578" lon="8.978411272356267"><ele>85.0</ele><time>2026-04-11T14:52:30.999Z</time></trkpt><trkpt lat="45.19467282958984" lon="8.978382967945564"><ele>85.0</ele><time>2026-04-11T14:52:32.999Z</time></trkpt><trkpt lat="45.19479256135492" lon="8.978366940506533"><ele>85.0</ele><time>2026-04-11T14:52:34.999Z</time></trkpt><trkpt lat="45.1948931313987" lon="8.97836369575662"><ele>85.33333333333333</ele><time>2026-04-11T14:52:36.999Z</time></trkpt><trkpt lat="45.19499995888247" lon="8.978346187101316"><ele>85.66666666666666</ele><time>2026-04-11T14:52:38.999Z</time></trkpt><trkpt lat="45.19509805550906" lon="8.978318765336564"><ele>86.0</ele><time>2026-04-11T14:52:40.999Z</time></trkpt><trkpt lat="45.19516522870258" lon="8.978266509809568"><ele>86.33333333333333</ele><time>2026-04-11T14:52:43.999Z</time></trkpt><trkpt lat="45.195206655746865" lon="8.978195052883231"><ele>86.66666666666667</ele><time>2026-04-11T14:52:46.999Z</time></trkpt><trkpt lat="45.19522658846815" lon="8.978089903320317"><ele>87.0</ele><time>2026-04-11T14:52:48.999Z</time></trkpt><trkpt lat="45.19520174871483" lon="8.977979211778772"><ele>87.0</ele><time>2026-04-11T14:52:50.999Z</time></trkpt><trkpt lat="45.19513742434001" lon="8.977867055485772"><ele>87.0</ele><time>2026-04-11T14:52:52.999Z</time></trkpt><trkpt lat="45.1950427622752" lon="8.977743657125442"><ele>87.0</ele><time>2026-04-11T14:52:54.999Z</time></trkpt><trkpt lat="45.19499509201709" lon="8.97767638572998"><ele>87.0</ele><time>2026-04-11T14:52:55.999Z</time></trkpt><trkpt lat="45.19494262667589" lon="8.977601438406621"><ele>87.0</ele><time>2026-04-11T14:52:56.999Z</time></trkpt><trkpt lat="45.19488990661519" lon="8.977534313715628"><ele>87.0</ele><time>2026-04-11T14:52:57.999Z</time></trkpt><trkpt lat="45.19484017589806" lon="8.97747037387717"><ele>87.39999999999999</ele><time>2026-04-11T14:52:58.999Z</time></trkpt><trkpt lat="45.194762317472666" lon="8.977380843103466"><ele>87.8</ele><time>2026-04-11T14:53:00.999Z</time></trkpt><trkpt lat="45.19470712282486" lon="8.97731469005077"><ele>88.2</ele><time>2026-04-11T14:53:02.999Z</time></trkpt><trkpt lat="45.19464692732719" lon="8.977255375239267"><ele>88.6</ele><time>2026-04-11T14:53:04.999Z</time></trkpt><trkpt lat="45.1945746192905" lon="8.977170365480276"><ele>89.0</ele><time>2026-04-11T14:53:06.999Z</time></trkpt><trkpt lat="45.19448889420059" lon="8.9770533887844"><ele>89.0</ele><time>2026-04-11T14:53:08.999Z</time></trkpt><trkpt lat="45.19444030263946" lon="8.976983981407528"><ele>89.0</ele><time>2026-04-11T14:53:09.999Z</time></trkpt><trkpt lat="45.194365422719095" lon="8.976852593555957"><ele>89.0</ele><time>2026-04-11T14:53:11.999Z</time></trkpt><trkpt lat="45.19433079387427" lon="8.976722068327154"><ele>89.0</ele><time>2026-04-11T14:53:13.999Z</time></trkpt><trkpt lat="45.194340874880844" lon="8.976574671504679"><ele>89.0</ele><time>2026-04-11T14:53:15.999Z</time></trkpt><trkpt lat="45.194390503977296" lon="8.976466737961475"><ele>89.16666666666667</ele><time>2026-04-11T14:53:17.999Z</time></trkpt><trkpt lat="45.19443867083319" lon="8.976394311065182"><ele>89.33333333333334</ele><time>2026-04-11T14:53:20.999Z</time></trkpt><trkpt lat="45.19449417246501" lon="8.976317623457737"><ele>89.5</ele><time>2026-04-11T14:53:23.999Z</time></trkpt><trkpt lat="45.19452104955407" lon="8.976203461973677"><ele>89.66666666666667</ele><time>2026-04-11T14:53:25.999Z</time></trkpt><trkpt lat="45.19457466304245" lon="8.976085251772481"><ele>89.83333333333333</ele><time>2026-04-11T14:53:27.999Z</time></trkpt><trkpt lat="45.194612895756514" lon="8.975960827592319"><ele>90.0</ele><time>2026-04-11T14:53:29.999Z</time></trkpt><trkpt lat="45.19465493779331" lon="8.975817873644905"><ele>90.0</ele><time>2026-04-11T14:53:31.999Z</time></trkpt><trkpt lat="45.19468611142597" lon="8.975713212047337"><ele>90.0</ele><time>2026-04-11T14:53:33.999Z</time></trkpt><trkpt lat="45.19471535970114" lon="8.975605601367588"><ele>90.0</ele><time>2026-04-11T14:53:36.999Z</time></trkpt><trkpt lat="45.19506365583639" lon="8.975393089818718"><ele>92.0</ele><time>2026-04-11T14:53:42.999Z</time></trkpt><trkpt lat="45.195161851816586" lon="8.976046872448734"><ele>92.0</ele><time>2026-04-11T14:53:48.999Z</time></trkpt><trkpt lat="45.19521441031838" lon="8.976096893785183"><ele>92.0</ele><time>2026-04-11T14:53:49.999Z</time></trkpt><trkpt lat="45.1952692929805" lon="8.97614152560606"><ele>92.0</ele><time>2026-04-11T14:53:50.999Z</time></trkpt><trkpt lat="45.195349128358345" lon="8.976250542955407"><ele>92.0</ele><time>2026-04-11T14:53:52.999Z</time></trkpt><trkpt lat="45.19541839092249" lon="8.97633963597797"><ele>92.0</ele><time>2026-04-11T14:53:54.999Z</time></trkpt><trkpt lat="45.19549407616874" lon="8.976463841535994"><ele>92.0</ele><time>2026-04-11T14:53:56.999Z</time></trkpt><trkpt lat="45.1955329758337" lon="8.97655288468818"><ele>92.0</ele><time>2026-04-11T14:53:57.999Z</time></trkpt><trkpt lat="45.19560749209943" lon="8.976668145670363"><ele>92.0</ele><time>2026-04-11T14:53:59.999Z</time></trkpt><trkpt lat="45.19566968318108" lon="8.9767608201736"><ele>92.0</ele><time>2026-04-11T14:54:01.999Z</time></trkpt><trkpt lat="45.1957404139137" lon="8.976850744717629"><ele>92.0</ele><time>2026-04-11T14:54:03.999Z</time></trkpt><trkpt lat="45.19585395593711" lon="8.976936224160534"><ele>92.0</ele><time>2026-04-11T14:54:05.999Z</time></trkpt><trkpt lat="45.19591686873916" lon="8.976972643844352"><ele>91.83333333333334</ele><time>2026-04-11T14:54:06.999Z</time></trkpt><trkpt lat="45.1959878265671" lon="8.977015097229343"><ele>91.66666666666667</ele><time>2026-04-11T14:54:07.999Z</time></trkpt><trkpt lat="45.19604842221404" lon="8.977044571120109"><ele>91.5</ele><time>2026-04-11T14:54:08.999Z</time></trkpt><trkpt lat="45.196101516984434" lon="8.977095131815915"><ele>91.33333333333333</ele><time>2026-04-11T14:54:09.999Z</time></trkpt><trkpt lat="45.19619249050448" lon="8.977129925109612"><ele>91.16666666666666</ele><time>2026-04-11T14:54:11.999Z</time></trkpt><trkpt lat="45.1962847754249" lon="8.977120800484634"><ele>91.0</ele><time>2026-04-11T14:54:13.999Z</time></trkpt><trkpt lat="45.19643730895727" lon="8.97713012912199"><ele>88.2</ele><time>2026-04-11T14:54:16.999Z</time></trkpt><trkpt lat="45.19653291489373" lon="8.977127257458475"><ele>85.39999999999999</ele><time>2026-04-11T14:54:18.999Z</time></trkpt><trkpt lat="45.19662624403302" lon="8.977138536673353"><ele>82.6</ele><time>2026-04-11T14:54:20.999Z</time></trkpt><trkpt lat="45.1966993323634" lon="8.977153212011078"><ele>79.8</ele><time>2026-04-11T14:54:22.999Z</time></trkpt><trkpt lat="45.19675606843374" lon="8.977209180216203"><ele>77.0</ele><time>2026-04-11T14:54:27.999Z</time></trkpt><trkpt lat="45.19682955191403" lon="8.977046980838542"><ele>77.0</ele><time>2026-04-11T14:54:29.999Z</time></trkpt><trkpt lat="45.1968487888766" lon="8.976958432165283"><ele>77.0</ele><time>2026-04-11T14:54:30.999Z</time></trkpt><trkpt lat="45.19687811983964" lon="8.97684802548034"><ele>77.0</ele><time>2026-04-11T14:54:32.999Z</time></trkpt><trkpt lat="45.196905034053906" lon="8.976759813906792"><ele>77.0</ele><time>2026-04-11T14:54:34.999Z</time></trkpt><trkpt lat="45.1969470283229" lon="8.976659165404554"><ele>77.0</ele><time>2026-04-11T14:56:24Z</time></trkpt><trkpt lat="45.196971588598565" lon="8.976574508962026"><ele>77.0</ele><time>2026-04-11T14:56:26Z</time></trkpt><trkpt lat="45.19694806021271" lon="8.976666715582171"><ele>77.0</ele><time>2026-04-11T14:56:35Z</time></trkpt><trkpt lat="45.19691537059221" lon="8.976746528571358"><ele>77.0</ele><time>2026-04-11T14:56:37Z</time></trkpt><trkpt lat="45.19687853970731" lon="8.97684740136636"><ele>77.0</ele><time>2026-04-11T14:56:39Z</time></trkpt><trkpt lat="45.196843557731675" lon="8.976956205139464"><ele>77.0</ele><time>2026-04-11T14:56:41Z</time></trkpt><trkpt lat="45.19682733983287" lon="8.97706287103238"><ele>77.0</ele><time>2026-04-11T14:56:43Z</time></trkpt><trkpt lat="45.196797944373294" lon="8.977147334840092"><ele>77.0</ele><time>2026-04-11T14:56:45Z</time></trkpt><trkpt lat="45.19670026225626" lon="8.976795351817815"><ele>77.0</ele><time>2026-04-11T14:56:48Z</time></trkpt><trkpt lat="45.196616538255036" lon="8.976737463796148"><ele>77.0</ele><time>2026-04-11T14:56:50Z</time></trkpt><trkpt lat="45.19650644411566" lon="8.976702308382114"><ele>77.0</ele><time>2026-04-11T14:56:52Z</time></trkpt><trkpt lat="45.196308314739085" lon="8.977121955453102"><ele>79.8</ele><time>2026-04-11T14:56:54Z</time></trkpt><trkpt lat="45.19618893105722" lon="8.977103633602628"><ele>82.6</ele><time>2026-04-11T14:56:56Z</time></trkpt><trkpt lat="45.19608778313478" lon="8.977057139886941"><ele>85.39999999999999</ele><time>2026-04-11T14:56:58Z</time></trkpt><trkpt lat="45.19596561167038" lon="8.97697140771119"><ele>88.2</ele><time>2026-04-11T14:57:00Z</time></trkpt><trkpt lat="45.19590400116864" lon="8.976925258017529"><ele>91.0</ele><time>2026-04-11T14:57:01Z</time></trkpt><trkpt lat="45.195848724379736" lon="8.976880431563757"><ele>91.0</ele><time>2026-04-11T14:57:02Z</time></trkpt><trkpt lat="45.19574746653556" lon="8.97678420289203"><ele>91.0</ele><time>2026-04-11T14:57:04Z</time></trkpt><trkpt lat="45.19566008124391" lon="8.976681512578367"><ele>91.0</ele><time>2026-04-11T14:57:06Z</time></trkpt><trkpt lat="45.19557945691797" lon="8.976561031241"><ele>91.0</ele><time>2026-04-11T14:57:08Z</time></trkpt><trkpt lat="45.19550176790967" lon="8.976425889828471"><ele>91.14285714285714</ele><time>2026-04-11T14:57:10Z</time></trkpt><trkpt lat="45.195458021264564" lon="8.976353192788107"><ele>91.28571428571428</ele><time>2026-04-11T14:57:11Z</time></trkpt><trkpt lat="45.19541258828037" lon="8.976278401102483"><ele>91.42857142857143</ele><time>2026-04-11T14:57:12Z</time></trkpt><trkpt lat="45.19536155871424" lon="8.976201178220954"><ele>91.57142857142857</ele><time>2026-04-11T14:57:13Z</time></trkpt><trkpt lat="45.19531124272017" lon="8.976128417567596"><ele>91.71428571428571</ele><time>2026-04-11T14:57:14Z</time></trkpt><trkpt lat="45.1952593395283" lon="8.976054264045153"><ele>91.85714285714286</ele><time>2026-04-11T14:57:15Z</time></trkpt><trkpt lat="45.19520782736466" lon="8.975981325904256"><ele>92.0</ele><time>2026-04-11T14:57:16Z</time></trkpt><trkpt lat="45.19515463200848" lon="8.975908352590197"><ele>92.0</ele><time>2026-04-11T14:57:17Z</time></trkpt><trkpt lat="45.19510018825781" lon="8.975844370552675"><ele>92.0</ele><time>2026-04-11T14:57:18Z</time></trkpt><trkpt lat="45.19504791906632" lon="8.975782944274593"><ele>92.0</ele><time>2026-04-11T14:57:19Z</time></trkpt><trkpt lat="45.19499564074842" lon="8.975732271293923"><ele>92.0</ele><time>2026-04-11T14:57:20Z</time></trkpt><trkpt lat="45.19493820824479" lon="8.975680203584869"><ele>92.0</ele><time>2026-04-11T14:57:21Z</time></trkpt><trkpt lat="45.19487601061675" lon="8.975633581960816"><ele>92.0</ele><time>2026-04-11T14:57:22Z</time></trkpt><trkpt lat="45.19477071532292" lon="8.9755788850268"><ele>91.66666666666667</ele><time>2026-04-11T14:57:24Z</time></trkpt><trkpt lat="45.194706274456394" lon="8.975569232664165"><ele>91.33333333333334</ele><time>2026-04-11T14:57:26Z</time></trkpt><trkpt lat="45.19460934023245" lon="8.975550875833507"><ele>91.0</ele><time>2026-04-11T14:57:29Z</time></trkpt><trkpt lat="45.1945217415709" lon="8.975547678119772"><ele>90.66666666666667</ele><time>2026-04-11T14:57:32Z</time></trkpt><trkpt lat="45.19444876523901" lon="8.975518441990406"><ele>90.33333333333333</ele><time>2026-04-11T14:57:53Z</time></trkpt><trkpt lat="45.19438434015805" lon="8.975505429063787"><ele>90.0</ele><time>2026-04-11T14:57:55Z</time></trkpt><trkpt lat="45.19428799395592" lon="8.97550997811336"><ele>90.0</ele><time>2026-04-11T14:57:57Z</time></trkpt><trkpt lat="45.19419188877195" lon="8.975487166971693"><ele>90.0</ele><time>2026-04-11T14:57:59Z</time></trkpt><trkpt lat="45.194098273884535" lon="8.975470664128734"><ele>90.0</ele><time>2026-04-11T14:58:01Z</time></trkpt><trkpt lat="45.19400678805059" lon="8.975455357897363"><ele>90.0</ele><time>2026-04-11T14:58:03Z</time></trkpt><trkpt lat="45.1939054119221" lon="8.975443456922724"><ele>90.0</ele><time>2026-04-11T14:58:05Z</time></trkpt><trkpt lat="45.19381601637302" lon="8.975412579137943"><ele>89.6</ele><time>2026-04-11T14:58:07Z</time></trkpt><trkpt lat="45.1937191249234" lon="8.975397879452386"><ele>89.2</ele><time>2026-04-11T14:58:09Z</time></trkpt><trkpt lat="45.193610715042794" lon="8.975381432549971"><ele>88.80000000000001</ele><time>2026-04-11T14:58:11Z</time></trkpt><trkpt lat="45.19352710592254" lon="8.975363103350237"><ele>88.4</ele><time>2026-04-11T14:58:13Z</time></trkpt><trkpt lat="45.19344515230032" lon="8.975394491491228"><ele>88.0</ele><time>2026-04-11T14:58:15Z</time></trkpt><trkpt lat="45.19335737031317" lon="8.975810740208019"><ele>88.0</ele><time>2026-04-11T14:58:16Z</time></trkpt><trkpt lat="45.19330139155481" lon="8.97590739051329"><ele>88.0</ele><time>2026-04-11T14:58:17Z</time></trkpt><trkpt lat="45.19324840148957" lon="8.976007682912337"><ele>88.0</ele><time>2026-04-11T14:58:18Z</time></trkpt><trkpt lat="45.1931907935374" lon="8.976121505107695"><ele>88.0</ele><time>2026-04-11T14:58:18.999Z</time></trkpt><trkpt lat="45.193138946169796" lon="8.976220065514894"><ele>88.0</ele><time>2026-04-11T14:58:19.999Z</time></trkpt><trkpt lat="45.19309245154755" lon="8.976314815489713"><ele>88.0</ele><time>2026-04-11T14:58:20.999Z</time></trkpt><trkpt lat="45.19303733391949" lon="8.976415646005115"><ele>88.0</ele><time>2026-04-11T14:58:21.999Z</time></trkpt><trkpt lat="45.192980263158525" lon="8.976513980644036"><ele>88.0</ele><time>2026-04-11T14:58:22.999Z</time></trkpt><trkpt lat="45.192925386954094" lon="8.976613616243224"><ele>88.0</ele><time>2026-04-11T14:58:23.999Z</time></trkpt><trkpt lat="45.19286605063526" lon="8.976724629562804"><ele>88.0</ele><time>2026-04-11T14:58:24.999Z</time></trkpt><trkpt lat="45.19280539576375" lon="8.976834811096015"><ele>88.0</ele><time>2026-04-11T14:58:25.999Z</time></trkpt><trkpt lat="45.192740261128755" lon="8.976949193200664"><ele>88.2</ele><time>2026-04-11T14:58:26.999Z</time></trkpt><trkpt lat="45.19268130907838" lon="8.977056881357266"><ele>88.4</ele><time>2026-04-11T14:58:27.999Z</time></trkpt><trkpt lat="45.19262659035169" lon="8.977161007679026"><ele>88.60000000000001</ele><time>2026-04-11T14:58:28.999Z</time></trkpt><trkpt lat="45.192567066366365" lon="8.977270033286915"><ele>88.80000000000001</ele><time>2026-04-11T14:58:29.999Z</time></trkpt><trkpt lat="45.19250581439356" lon="8.977387002451092"><ele>89.0</ele><time>2026-04-11T14:58:30.999Z</time></trkpt><trkpt lat="45.192443450062214" lon="8.97750783943695"><ele>89.2</ele><time>2026-04-11T14:58:31.999Z</time></trkpt><trkpt lat="45.192380616086226" lon="8.977624229116621"><ele>89.4</ele><time>2026-04-11T14:58:32.999Z</time></trkpt><trkpt lat="45.192318312962115" lon="8.977744978636464"><ele>89.6</ele><time>2026-04-11T14:58:33.999Z</time></trkpt><trkpt lat="45.19226117378599" lon="8.977849249809514"><ele>89.8</ele><time>2026-04-11T14:58:34.999Z</time></trkpt><trkpt lat="45.19221074150388" lon="8.977944588186181"><ele>90.0</ele><time>2026-04-11T14:58:35.999Z</time></trkpt><trkpt lat="45.19215567811367" lon="8.97805647299078"><ele>90.0</ele><time>2026-04-11T14:58:36.999Z</time></trkpt><trkpt lat="45.19209481720554" lon="8.978158047432569"><ele>90.0</ele><time>2026-04-11T14:58:37.999Z</time></trkpt><trkpt lat="45.192039391487285" lon="8.978250144768468"><ele>90.0</ele><time>2026-04-11T14:58:38.999Z</time></trkpt><trkpt lat="45.19196890878387" lon="8.978343112926964"><ele>90.0</ele><time>2026-04-11T14:58:39.999Z</time></trkpt><trkpt lat="45.19189349023494" lon="8.978426418278852"><ele>90.0</ele><time>2026-04-11T14:58:40.999Z</time></trkpt><trkpt lat="45.19182090697607" lon="8.978496236865587"><ele>89.83333333333333</ele><time>2026-04-11T14:58:41.999Z</time></trkpt><trkpt lat="45.19176030676512" lon="8.978562333678818"><ele>89.66666666666667</ele><time>2026-04-11T14:58:42.999Z</time></trkpt><trkpt lat="45.191678414330276" lon="8.978677764809612"><ele>89.5</ele><time>2026-04-11T14:58:44.999Z</time></trkpt><trkpt lat="45.19164852070354" lon="8.97876623008189"><ele>89.33333333333334</ele><time>2026-04-11T14:58:45.999Z</time></trkpt><trkpt lat="45.19162307094107" lon="8.978874638159597"><ele>89.16666666666667</ele><time>2026-04-11T14:58:46.999Z</time></trkpt><trkpt lat="45.19159604420152" lon="8.978997178972081"><ele>89.0</ele><time>2026-04-11T14:58:47.999Z</time></trkpt><trkpt lat="45.1915709267507" lon="8.979126393631784"><ele>89.0</ele><time>2026-04-11T14:58:48.999Z</time></trkpt><trkpt lat="45.19154116463371" lon="8.97925007401722"><ele>89.0</ele><time>2026-04-11T14:58:49.999Z</time></trkpt><trkpt lat="45.191513130707094" lon="8.979381849541774"><ele>89.0</ele><time>2026-04-11T14:58:50.999Z</time></trkpt><trkpt lat="45.1914787319807" lon="8.979507887482265"><ele>89.0</ele><time>2026-04-11T14:58:51.999Z</time></trkpt><trkpt lat="45.19143950986759" lon="8.979626503609623"><ele>89.0</ele><time>2026-04-11T14:58:52.999Z</time></trkpt><trkpt lat="45.191400931206914" lon="8.979749294608343"><ele>89.0</ele><time>2026-04-11T14:58:53.999Z</time></trkpt><trkpt lat="45.19136415259686" lon="8.979870382873132"><ele>89.0</ele><time>2026-04-11T14:58:54.999Z</time></trkpt><trkpt lat="45.19132904804336" lon="8.980006544793625"><ele>89.0</ele><time>2026-04-11T14:58:55.999Z</time></trkpt><trkpt lat="45.19129018872496" lon="8.980155155937023"><ele>89.0</ele><time>2026-04-11T14:58:57Z</time></trkpt><trkpt lat="45.19125312427221" lon="8.980293472103778"><ele>89.0</ele><time>2026-04-11T14:58:57.999Z</time></trkpt><trkpt lat="45.19117350196616" lon="8.980510943022981"><ele>89.0</ele><time>2026-04-11T14:59:00Z</time></trkpt><trkpt lat="45.191120747924295" lon="8.980623004848226"><ele>89.0</ele><time>2026-04-11T14:59:01Z</time></trkpt><trkpt lat="45.19105963413696" lon="8.980737501070184"><ele>89.0</ele><time>2026-04-11T14:59:02Z</time></trkpt><trkpt lat="45.19099286309084" lon="8.980854783700325"><ele>89.0</ele><time>2026-04-11T14:59:03Z</time></trkpt><trkpt lat="45.190925885125374" lon="8.980958982647168"><ele>89.0</ele><time>2026-04-11T14:59:04Z</time></trkpt><trkpt lat="45.190858172983816" lon="8.981049627179212"><ele>88.80000000000001</ele><time>2026-04-11T14:59:05Z</time></trkpt><trkpt lat="45.19078161919034" lon="8.981130192527438"><ele>88.60000000000001</ele><time>2026-04-11T14:59:06Z</time></trkpt><trkpt lat="45.19070860935426" lon="8.98121104155842"><ele>88.4</ele><time>2026-04-11T14:59:07Z</time></trkpt><trkpt lat="45.19063447523313" lon="8.981303230375374"><ele>88.2</ele><time>2026-04-11T14:59:08Z</time></trkpt><trkpt lat="45.19057190358261" lon="8.981405034099241"><ele>88.0</ele><time>2026-04-11T14:59:09Z</time></trkpt><trkpt lat="45.19052125327086" lon="8.981520418665106"><ele>88.0</ele><time>2026-04-11T14:59:10Z</time></trkpt><trkpt lat="45.19047113566813" lon="8.981648229308067"><ele>88.0</ele><time>2026-04-11T14:59:11Z</time></trkpt><trkpt lat="45.19042373680876" lon="8.98177821421515"><ele>88.0</ele><time>2026-04-11T14:59:12Z</time></trkpt><trkpt lat="45.19037020628793" lon="8.981917287609035"><ele>88.0</ele><time>2026-04-11T14:59:13Z</time></trkpt><trkpt lat="45.190320981864254" lon="8.982048714004161"><ele>88.0</ele><time>2026-04-11T14:59:14Z</time></trkpt><trkpt lat="45.19027088956033" lon="8.982172234271516"><ele>88.2</ele><time>2026-04-11T14:59:15Z</time></trkpt><trkpt lat="45.19021546536393" lon="8.98229993598541"><ele>88.4</ele><time>2026-04-11T14:59:16Z</time></trkpt><trkpt lat="45.19016480282516" lon="8.982420550214751"><ele>88.60000000000001</ele><time>2026-04-11T14:59:17Z</time></trkpt><trkpt lat="45.19011266288712" lon="8.982548594061363"><ele>88.80000000000001</ele><time>2026-04-11T14:59:18Z</time></trkpt><trkpt lat="45.19005761889827" lon="8.982699778207243"><ele>89.0</ele><time>2026-04-11T14:59:19Z</time></trkpt><trkpt lat="45.19000421154916" lon="8.982842359954535"><ele>89.0</ele><time>2026-04-11T14:59:20Z</time></trkpt><trkpt lat="45.18995284360994" lon="8.982984958150567"><ele>89.0</ele><time>2026-04-11T14:59:21Z</time></trkpt><trkpt lat="45.18990370302405" lon="8.98312889169954"><ele>89.0</ele><time>2026-04-11T14:59:22Z</time></trkpt><trkpt lat="45.18985501759374" lon="8.983259469612543"><ele>89.0</ele><time>2026-04-11T14:59:23Z</time></trkpt><trkpt lat="45.1897991568367" lon="8.98338004643733"><ele>89.0</ele><time>2026-04-11T14:59:24Z</time></trkpt><trkpt lat="45.18974347873449" lon="8.983497199526267"><ele>88.6</ele><time>2026-04-11T14:59:25Z</time></trkpt><trkpt lat="45.189689115344834" lon="8.983603155314741"><ele>88.2</ele><time>2026-04-11T14:59:25.999Z</time></trkpt><trkpt lat="45.189634602984505" lon="8.983708067594442"><ele>87.8</ele><time>2026-04-11T14:59:26.999Z</time></trkpt><trkpt lat="45.18956388414882" lon="8.983811989068426"><ele>87.39999999999999</ele><time>2026-04-11T14:59:27.999Z</time></trkpt><trkpt lat="45.189497934527445" lon="8.983916909844568"><ele>87.0</ele><time>2026-04-11T14:59:28.999Z</time></trkpt><trkpt lat="45.18944032173459" lon="8.984012906227496"><ele>87.0</ele><time>2026-04-11T14:59:29.999Z</time></trkpt><trkpt lat="45.18939568110259" lon="8.984111404588768"><ele>87.0</ele><time>2026-04-11T14:59:30.999Z</time></trkpt><trkpt lat="45.18936589459698" lon="8.984205327463409"><ele>87.0</ele><time>2026-04-11T14:59:32Z</time></trkpt><trkpt lat="45.189325700831716" lon="8.984341579506536"><ele>87.0</ele><time>2026-04-11T14:59:32.999Z</time></trkpt><trkpt lat="45.189287453049324" lon="8.984482141607147"><ele>87.0</ele><time>2026-04-11T14:59:33.999Z</time></trkpt><trkpt lat="45.189246404576835" lon="8.98462530303377"><ele>87.0</ele><time>2026-04-11T14:59:34.999Z</time></trkpt><trkpt lat="45.18920931138112" lon="8.984757768679986"><ele>87.0</ele><time>2026-04-11T14:59:35.999Z</time></trkpt><trkpt lat="45.189169748236395" lon="8.984868634974992"><ele>87.0</ele><time>2026-04-11T14:59:36.999Z</time></trkpt><trkpt lat="45.18913075527097" lon="8.984967188107934"><ele>87.0</ele><time>2026-04-11T14:59:37.999Z</time></trkpt><trkpt lat="45.18909075915921" lon="8.985042216861123"><ele>87.0</ele><time>2026-04-11T14:59:38.999Z</time></trkpt><trkpt lat="45.18899292203423" lon="8.985143311539426"><ele>87.0</ele><time>2026-04-11T14:59:40.999Z</time></trkpt><trkpt lat="45.18892657737173" lon="8.985154047398911"><ele>87.0</ele><time>2026-04-11T14:59:41.999Z</time></trkpt><trkpt lat="45.18884770982704" lon="8.98515401278525"><ele>87.0</ele><time>2026-04-11T14:59:42.999Z</time></trkpt><trkpt lat="45.188765084847816" lon="8.985150006998223"><ele>87.0</ele><time>2026-04-11T14:59:43.999Z</time></trkpt><trkpt lat="45.18867320528708" lon="8.985142352910156"><ele>87.0</ele><time>2026-04-11T14:59:44.999Z</time></trkpt><trkpt lat="45.18857539278255" lon="8.985131466199215"><ele>87.0</ele><time>2026-04-11T14:59:45.999Z</time></trkpt><trkpt lat="45.18847856102999" lon="8.985121120217254"><ele>87.0</ele><time>2026-04-11T14:59:46.999Z</time></trkpt><trkpt lat="45.18837692850181" lon="8.985110966041741"><ele>87.0</ele><time>2026-04-11T14:59:47.999Z</time></trkpt><trkpt lat="45.18828347450953" lon="8.985075707592609"><ele>87.0</ele><time>2026-04-11T14:59:48.999Z</time></trkpt><trkpt lat="45.18818020144548" lon="8.985040753326883"><ele>87.0</ele><time>2026-04-11T14:59:49.999Z</time></trkpt><trkpt lat="45.1880707930348" lon="8.985007692299966"><ele>87.0</ele><time>2026-04-11T14:59:50.999Z</time></trkpt><trkpt lat="45.18794508935736" lon="8.98497473002078"><ele>88.0</ele><time>2026-04-11T14:59:51.999Z</time></trkpt><trkpt lat="45.18783318493438" lon="8.984933662239952"><ele>89.0</ele><time>2026-04-11T14:59:52.999Z</time></trkpt><trkpt lat="45.18773179369941" lon="8.98489082765059"><ele>90.0</ele><time>2026-04-11T14:59:53.999Z</time></trkpt><trkpt lat="45.187646739032076" lon="8.984857386255818"><ele>91.0</ele><time>2026-04-11T14:59:54.999Z</time></trkpt><trkpt lat="45.18758441652894" lon="8.984839988694103"><ele>92.0</ele><time>2026-04-11T14:59:55.999Z</time></trkpt><trkpt lat="45.18751723951803" lon="8.98484948405314"><ele>93.0</ele><time>2026-04-11T14:59:57.999Z</time></trkpt><trkpt lat="45.187469727882956" lon="8.984925271015157"><ele>92.33333333333333</ele><time>2026-04-11T14:59:59.999Z</time></trkpt><trkpt lat="45.187426240651334" lon="8.985076508596652"><ele>91.66666666666667</ele><time>2026-04-11T15:00:01.999Z</time></trkpt><trkpt lat="45.187409986973265" lon="8.985168865107699"><ele>91.0</ele><time>2026-04-11T15:00:02.999Z</time></trkpt><trkpt lat="45.18739230943461" lon="8.98526028702843"><ele>90.33333333333334</ele><time>2026-04-11T15:00:03.999Z</time></trkpt><trkpt lat="45.18737540587925" lon="8.985368769812528"><ele>89.66666666666667</ele><time>2026-04-11T15:00:04.999Z</time></trkpt><trkpt lat="45.18735766329859" lon="8.985478785760238"><ele>89.0</ele><time>2026-04-11T15:00:05.999Z</time></trkpt><trkpt lat="45.18733566834099" lon="8.98560522252968"><ele>89.0</ele><time>2026-04-11T15:00:06.999Z</time></trkpt><trkpt lat="45.18731311678439" lon="8.9857357859718"><ele>89.0</ele><time>2026-04-11T15:00:07.999Z</time></trkpt><trkpt lat="45.18728700282651" lon="8.985878338716914"><ele>89.0</ele><time>2026-04-11T15:00:08.999Z</time></trkpt><trkpt lat="45.187256783079555" lon="8.986018229004854"><ele>89.0</ele><time>2026-04-11T15:00:09.999Z</time></trkpt><trkpt lat="45.18723687041415" lon="8.98614260733641"><ele>89.0</ele><time>2026-04-11T15:00:10.999Z</time></trkpt><trkpt lat="45.18721516577669" lon="8.986243121460678"><ele>89.0</ele><time>2026-04-11T15:00:11.999Z</time></trkpt><trkpt lat="45.18719050335249" lon="8.986350854796008"><ele>89.0</ele><time>2026-04-11T15:00:12.999Z</time></trkpt><trkpt lat="45.18716514963844" lon="8.98645707189731"><ele>89.0</ele><time>2026-04-11T15:00:13.999Z</time></trkpt><trkpt lat="45.18709857890978" lon="8.986586249894987"><ele>89.0</ele><time>2026-04-11T15:00:15.999Z</time></trkpt><trkpt lat="45.18698531960399" lon="8.986625240155957"><ele>89.0</ele><time>2026-04-11T15:00:17.999Z</time></trkpt><trkpt lat="45.1869024075864" lon="8.986630339718833"><ele>89.0</ele><time>2026-04-11T15:00:18.999Z</time></trkpt><trkpt lat="45.186783900595735" lon="8.98664473434695"><ele>89.0</ele><time>2026-04-11T15:00:19.999Z</time></trkpt><trkpt lat="45.18666623465597" lon="8.98666163326554"><ele>89.0</ele><time>2026-04-11T15:00:20.999Z</time></trkpt><trkpt lat="45.18655498109535" lon="8.986679537832998"><ele>89.0</ele><time>2026-04-11T15:00:21.999Z</time></trkpt><trkpt lat="45.18643117419322" lon="8.986704723105698"><ele>88.75</ele><time>2026-04-11T15:00:22.999Z</time></trkpt><trkpt lat="45.18629521592773" lon="8.986724340759984"><ele>88.5</ele><time>2026-04-11T15:00:23.999Z</time></trkpt><trkpt lat="45.18615526003982" lon="8.986734931878496"><ele>88.25</ele><time>2026-04-11T15:00:24.999Z</time></trkpt><trkpt lat="45.186035131170726" lon="8.986737169518598"><ele>88.0</ele><time>2026-04-11T15:00:25.999Z</time></trkpt><trkpt lat="45.18592228544094" lon="8.986744727354846"><ele>88.0</ele><time>2026-04-11T15:00:26.999Z</time></trkpt><trkpt lat="45.18581798448216" lon="8.986751486060117"><ele>88.0</ele><time>2026-04-11T15:00:27.999Z</time></trkpt><trkpt lat="45.185703479465985" lon="8.986759884416882"><ele>88.0</ele><time>2026-04-11T15:00:28.999Z</time></trkpt><trkpt lat="45.18558200371255" lon="8.986768150004718"><ele>88.0</ele><time>2026-04-11T15:00:29.999Z</time></trkpt><trkpt lat="45.185472039838274" lon="8.986776472605175"><ele>87.80000000000001</ele><time>2026-04-11T15:00:30.999Z</time></trkpt><trkpt lat="45.18536564252254" lon="8.986778812106683"><ele>87.6</ele><time>2026-04-11T15:00:31.999Z</time></trkpt><trkpt lat="45.185257886148754" lon="8.986780978371748"><ele>87.4</ele><time>2026-04-11T15:00:32.999Z</time></trkpt><trkpt lat="45.185156427826016" lon="8.986788160199014"><ele>87.19999999999999</ele><time>2026-04-11T15:00:33.999Z</time></trkpt><trkpt lat="45.18507214059547" lon="8.986794205284845"><ele>87.0</ele><time>2026-04-11T15:00:34.999Z</time></trkpt><trkpt lat="45.18496379295838" lon="8.98678695420001"><ele>87.0</ele><time>2026-04-11T15:00:36.999Z</time></trkpt><trkpt lat="45.184875660374445" lon="8.986842491822763"><ele>87.0</ele><time>2026-04-11T15:00:38.999Z</time></trkpt><trkpt lat="45.18482492026769" lon="8.986906996477792"><ele>87.0</ele><time>2026-04-11T15:00:39.999Z</time></trkpt><trkpt lat="45.184764606059844" lon="8.9869970699786"><ele>87.0</ele><time>2026-04-11T15:00:40.999Z</time></trkpt><trkpt lat="45.184697686090345" lon="8.987114460412364"><ele>87.0</ele><time>2026-04-11T15:00:41.999Z</time></trkpt><trkpt lat="45.1846287348625" lon="8.987212886275627"><ele>87.5</ele><time>2026-04-11T15:00:42.999Z</time></trkpt><trkpt lat="45.18456305240325" lon="8.987287612514503"><ele>88.0</ele><time>2026-04-11T15:00:43.999Z</time></trkpt><trkpt lat="45.1844973323355" lon="8.987342749701059"><ele>88.5</ele><time>2026-04-11T15:00:44.999Z</time></trkpt><trkpt lat="45.184429644269215" lon="8.987381979537107"><ele>89.0</ele><time>2026-04-11T15:00:45.999Z</time></trkpt><trkpt lat="45.18436084541058" lon="8.987407214130041"><ele>89.5</ele><time>2026-04-11T15:00:46.999Z</time></trkpt><trkpt lat="45.184290092035994" lon="8.987408684893822"><ele>90.0</ele><time>2026-04-11T15:00:47.999Z</time></trkpt><trkpt lat="45.1842138032718" lon="8.98741351819849"><ele>90.0</ele><time>2026-04-11T15:00:48.999Z</time></trkpt><trkpt lat="45.18413343069377" lon="8.987409977159643"><ele>90.0</ele><time>2026-04-11T15:00:49.999Z</time></trkpt><trkpt lat="45.18405123487625" lon="8.987403059700203"><ele>90.0</ele><time>2026-04-11T15:00:50.999Z</time></trkpt><trkpt lat="45.183958525799554" lon="8.98740238399931"><ele>90.0</ele><time>2026-04-11T15:00:51.999Z</time></trkpt><trkpt lat="45.18386178434973" lon="8.987399237781027"><ele>90.0</ele><time>2026-04-11T15:00:52.999Z</time></trkpt><trkpt lat="45.18376298146865" lon="8.987390979837656"><ele>90.2</ele><time>2026-04-11T15:00:53.999Z</time></trkpt><trkpt lat="45.18366159191982" lon="8.987391425484436"><ele>90.4</ele><time>2026-04-11T15:00:54.999Z</time></trkpt><trkpt lat="45.183560465916266" lon="8.987389658266745"><ele>90.6</ele><time>2026-04-11T15:00:56Z</time></trkpt><trkpt lat="45.18345156514102" lon="8.987386916058698"><ele>90.8</ele><time>2026-04-11T15:00:57Z</time></trkpt><trkpt lat="45.183346954009096" lon="8.987384851838137"><ele>91.0</ele><time>2026-04-11T15:00:58Z</time></trkpt><trkpt lat="45.18325325469924" lon="8.987379210931474"><ele>90.66666666666666</ele><time>2026-04-11T15:00:59Z</time></trkpt><trkpt lat="45.18316620975459" lon="8.98737969870827"><ele>90.33333333333333</ele><time>2026-04-11T15:01:00Z</time></trkpt><trkpt lat="45.1830833123998" lon="8.98737911428248"><ele>90.0</ele><time>2026-04-11T15:01:01Z</time></trkpt><trkpt lat="45.1830068267126" lon="8.987376233789789"><ele>89.66666666666667</ele><time>2026-04-11T15:01:02Z</time></trkpt><trkpt lat="45.18293190749174" lon="8.987376548416712"><ele>89.33333333333334</ele><time>2026-04-11T15:01:03Z</time></trkpt><trkpt lat="45.18286425374956" lon="8.987375665405233"><ele>89.0</ele><time>2026-04-11T15:01:04Z</time></trkpt><trkpt lat="45.182783885663554" lon="8.987382411949067"><ele>89.0</ele><time>2026-04-11T15:01:05Z</time></trkpt><trkpt lat="45.18268335208835" lon="8.987379897303912"><ele>89.0</ele><time>2026-04-11T15:01:06Z</time></trkpt><trkpt lat="45.182587065506645" lon="8.987379228621268"><ele>89.0</ele><time>2026-04-11T15:01:07Z</time></trkpt><trkpt lat="45.18249859901497" lon="8.987378306871776"><ele>89.0</ele><time>2026-04-11T15:01:08Z</time></trkpt><trkpt lat="45.1824248162693" lon="8.987375582776354"><ele>89.0</ele><time>2026-04-11T15:01:09Z</time></trkpt><trkpt lat="45.18233892261811" lon="8.987375530278438"><ele>89.0</ele><time>2026-04-11T15:01:10Z</time></trkpt><trkpt lat="45.18224840784251" lon="8.987374079898062"><ele>88.85714285714285</ele><time>2026-04-11T15:01:11Z</time></trkpt><trkpt lat="45.18216606042792" lon="8.987369535235963"><ele>88.71428571428571</ele><time>2026-04-11T15:01:12Z</time></trkpt><trkpt lat="45.182074287323445" lon="8.987370421405833"><ele>88.57142857142857</ele><time>2026-04-11T15:01:13Z</time></trkpt><trkpt lat="45.18200072660769" lon="8.987371949408343"><ele>88.42857142857142</ele><time>2026-04-11T15:01:14Z</time></trkpt><trkpt lat="45.18193729607155" lon="8.987370820478302"><ele>88.28571428571428</ele><time>2026-04-11T15:01:15Z</time></trkpt><trkpt lat="45.18186955111952" lon="8.987368072770439"><ele>88.14285714285714</ele><time>2026-04-11T15:01:16Z</time></trkpt><trkpt lat="45.181805901384564" lon="8.987361472490733"><ele>88.0</ele><time>2026-04-11T15:01:17Z</time></trkpt><trkpt lat="45.18172011316341" lon="8.987365290695072"><ele>88.0</ele><time>2026-04-11T15:01:19Z</time></trkpt><trkpt lat="45.181642802362724" lon="8.98736446575888"><ele>88.0</ele><time>2026-04-11T15:01:21Z</time></trkpt><trkpt lat="45.18156246950454" lon="8.987377739191551"><ele>88.0</ele><time>2026-04-11T15:01:23Z</time></trkpt><trkpt lat="45.181498144794766" lon="8.987424937688022"><ele>88.0</ele><time>2026-04-11T15:01:25Z</time></trkpt><trkpt lat="45.181480552680895" lon="8.987564774501175"><ele>88.0</ele><time>2026-04-11T15:01:27Z</time></trkpt><trkpt lat="45.18148123551458" lon="8.987666018884385"><ele>88.0</ele><time>2026-04-11T15:01:28Z</time></trkpt><trkpt lat="45.18147894852892" lon="8.98776519780992"><ele>87.71428571428572</ele><time>2026-04-11T15:01:29Z</time></trkpt><trkpt lat="45.181473278362354" lon="8.987861587179697"><ele>87.42857142857143</ele><time>2026-04-11T15:01:30Z</time></trkpt><trkpt lat="45.18146483178765" lon="8.987958025230855"><ele>87.14285714285714</ele><time>2026-04-11T15:01:31Z</time></trkpt><trkpt lat="45.18146207220251" lon="8.988056843012817"><ele>86.85714285714286</ele><time>2026-04-11T15:01:32Z</time></trkpt><trkpt lat="45.18146074304064" lon="8.988158218738425"><ele>86.57142857142857</ele><time>2026-04-11T15:01:33Z</time></trkpt><trkpt lat="45.18146222109843" lon="8.98826629607722"><ele>86.28571428571429</ele><time>2026-04-11T15:01:34Z</time></trkpt><trkpt lat="45.18145786277597" lon="8.98836303943263"><ele>86.0</ele><time>2026-04-11T15:01:35Z</time></trkpt><trkpt lat="45.18143423615899" lon="8.98845462877207"><ele>86.66666666666667</ele><time>2026-04-11T15:01:36Z</time></trkpt><trkpt lat="45.18143249767556" lon="8.988551738541354"><ele>87.33333333333334</ele><time>2026-04-11T15:01:37Z</time></trkpt><trkpt lat="45.18143072428425" lon="8.988650798126976"><ele>88.0</ele><time>2026-04-11T15:01:38Z</time></trkpt><trkpt lat="45.18144376832857" lon="8.98874119916118"><ele>88.66666666666667</ele><time>2026-04-11T15:01:39Z</time></trkpt><trkpt lat="45.18143996536129" lon="8.988909010263708"><ele>89.33333333333333</ele><time>2026-04-11T15:01:41Z</time></trkpt><trkpt lat="45.18143945955092" lon="8.989076012265667"><ele>90.0</ele><time>2026-04-11T15:01:43Z</time></trkpt><trkpt lat="45.18142123543872" lon="8.989180834050964"><ele>90.14285714285714</ele><time>2026-04-11T15:01:44Z</time></trkpt><trkpt lat="45.181416699216754" lon="8.989280508310591"><ele>90.28571428571429</ele><time>2026-04-11T15:01:45Z</time></trkpt><trkpt lat="45.18141019116739" lon="8.989388490542147"><ele>90.42857142857143</ele><time>2026-04-11T15:01:46Z</time></trkpt><trkpt lat="45.181400442568965" lon="8.989486149732267"><ele>90.57142857142857</ele><time>2026-04-11T15:01:47Z</time></trkpt><trkpt lat="45.18139199751957" lon="8.989577082702533"><ele>90.71428571428572</ele><time>2026-04-11T15:01:48Z</time></trkpt><trkpt lat="45.18139935445708" lon="8.989676062338855"><ele>90.85714285714286</ele><time>2026-04-11T15:01:49Z</time></trkpt><trkpt lat="45.18137475870455" lon="8.989759072039066"><ele>91.0</ele><time>2026-04-11T15:01:50Z</time></trkpt><trkpt lat="45.18136120972724" lon="8.989899064496019"><ele>91.0</ele><time>2026-04-11T15:01:52Z</time></trkpt><trkpt lat="45.18136553493768" lon="8.9899981550348"><ele>91.0</ele><time>2026-04-11T15:01:54Z</time></trkpt><trkpt lat="45.181195468670104" lon="8.990017708721759"><ele>90.0</ele><time>2026-04-11T15:02:01Z</time></trkpt></trkseg></trk></gpx>